<?xml version="1.0" encoding="UTF-8" standalone="no" ?>
<gpx xmlns="http://www.topografix.com/GPX/1/1" xmlns:xsi="http://www.w3.org/2001/XMLSchema-instance" xsi:schemaLocation="http://www.topografix.com/GPX/1/1 http://www.topografix.com/GPX/1/1/gpx.xsd" version="1.1" creator="VisuGPX - https://www.visugpx.com">
  <metadata>
    <name>Circuit Trail 1</name>
    <desc><![CDATA[Circuit de Trail pour coureurs confirmés.]]></desc>
  </metadata>
  <trk>
    <name><![CDATA[2013-01-19T13_3]]></name>
    <trkseg>
      <trkpt lat="44.34423" lon="2.51934">
        <ele>606.97</ele>
        <time>2013-01-19T13:33:15Z</time>
      </trkpt>
      <trkpt lat="44.3442" lon="2.51934">
        <ele>609.049</ele>
        <time>2013-01-19T13:33:26Z</time>
      </trkpt>
      <trkpt lat="44.34421" lon="2.51935">
        <ele>610.222</ele>
        <time>2013-01-19T13:33:36Z</time>
      </trkpt>
      <trkpt lat="44.34423" lon="2.51931">
        <ele>610.043</ele>
        <time>2013-01-19T13:33:40Z</time>
      </trkpt>
      <trkpt lat="44.3442" lon="2.51915">
        <ele>610.042</ele>
        <time>2013-01-19T13:33:47Z</time>
      </trkpt>
      <trkpt lat="44.34417" lon="2.51895">
        <ele>610.653</ele>
        <time>2013-01-19T13:33:54Z</time>
      </trkpt>
      <trkpt lat="44.34412" lon="2.51873">
        <ele>610.592</ele>
        <time>2013-01-19T13:34:02Z</time>
      </trkpt>
      <trkpt lat="44.34406" lon="2.51853">
        <ele>609.932</ele>
        <time>2013-01-19T13:34:09Z</time>
      </trkpt>
      <trkpt lat="44.34416" lon="2.51821">
        <ele>608.922</ele>
        <time>2013-01-19T13:34:17Z</time>
      </trkpt>
      <trkpt lat="44.34426" lon="2.51812">
        <ele>608.912</ele>
        <time>2013-01-19T13:34:22Z</time>
      </trkpt>
      <trkpt lat="44.34428" lon="2.5181">
        <ele>609.053</ele>
        <time>2013-01-19T13:34:24Z</time>
      </trkpt>
      <trkpt lat="44.34425" lon="2.51812">
        <ele>610.082</ele>
        <time>2013-01-19T13:34:29Z</time>
      </trkpt>
      <trkpt lat="44.34441" lon="2.51798">
        <ele>612.172</ele>
        <time>2013-01-19T13:35:09Z</time>
      </trkpt>
      <trkpt lat="44.34451" lon="2.51788">
        <ele>610.772</ele>
        <time>2013-01-19T13:35:15Z</time>
      </trkpt>
      <trkpt lat="44.34463" lon="2.51775">
        <ele>609.202</ele>
        <time>2013-01-19T13:35:22Z</time>
      </trkpt>
      <trkpt lat="44.34475" lon="2.51759">
        <ele>608.723</ele>
        <time>2013-01-19T13:35:30Z</time>
      </trkpt>
      <trkpt lat="44.34488" lon="2.51738">
        <ele>608.613</ele>
        <time>2013-01-19T13:35:39Z</time>
      </trkpt>
      <trkpt lat="44.34492" lon="2.51732">
        <ele>608.913</ele>
        <time>2013-01-19T13:35:42Z</time>
      </trkpt>
      <trkpt lat="44.34498" lon="2.51723">
        <ele>609.243</ele>
        <time>2013-01-19T13:35:46Z</time>
      </trkpt>
      <trkpt lat="44.34509" lon="2.51705">
        <ele>608.522</ele>
        <time>2013-01-19T13:35:54Z</time>
      </trkpt>
      <trkpt lat="44.3452" lon="2.51688">
        <ele>608.864</ele>
        <time>2013-01-19T13:36:01Z</time>
      </trkpt>
      <trkpt lat="44.34531" lon="2.5167">
        <ele>608.293</ele>
        <time>2013-01-19T13:36:09Z</time>
      </trkpt>
      <trkpt lat="44.34541" lon="2.51657">
        <ele>608.504</ele>
        <time>2013-01-19T13:36:15Z</time>
      </trkpt>
      <trkpt lat="44.34546" lon="2.51651">
        <ele>608.533</ele>
        <time>2013-01-19T13:36:21Z</time>
      </trkpt>
      <trkpt lat="44.34544" lon="2.51615">
        <ele>608.253</ele>
        <time>2013-01-19T13:36:27Z</time>
      </trkpt>
      <trkpt lat="44.34539" lon="2.51589">
        <ele>608.643</ele>
        <time>2013-01-19T13:36:35Z</time>
      </trkpt>
      <trkpt lat="44.34534" lon="2.51564">
        <ele>607.953</ele>
        <time>2013-01-19T13:36:43Z</time>
      </trkpt>
      <trkpt lat="44.34533" lon="2.51541">
        <ele>608.023</ele>
        <time>2013-01-19T13:36:50Z</time>
      </trkpt>
      <trkpt lat="44.3453" lon="2.51522">
        <ele>608.363</ele>
        <time>2013-01-19T13:36:56Z</time>
      </trkpt>
      <trkpt lat="44.34527" lon="2.51497">
        <ele>609.293</ele>
        <time>2013-01-19T13:37:04Z</time>
      </trkpt>
      <trkpt lat="44.34524" lon="2.51477">
        <ele>609.453</ele>
        <time>2013-01-19T13:37:10Z</time>
      </trkpt>
      <trkpt lat="44.34518" lon="2.51455">
        <ele>608.722</ele>
        <time>2013-01-19T13:37:17Z</time>
      </trkpt>
      <trkpt lat="44.34513" lon="2.51435">
        <ele>608.883</ele>
        <time>2013-01-19T13:37:23Z</time>
      </trkpt>
      <trkpt lat="44.34508" lon="2.51412">
        <ele>609.993</ele>
        <time>2013-01-19T13:37:30Z</time>
      </trkpt>
      <trkpt lat="44.34505" lon="2.51396">
        <ele>610.443</ele>
        <time>2013-01-19T13:37:35Z</time>
      </trkpt>
      <trkpt lat="44.34501" lon="2.51377">
        <ele>610.292</ele>
        <time>2013-01-19T13:37:41Z</time>
      </trkpt>
      <trkpt lat="44.34496" lon="2.51358">
        <ele>610.653</ele>
        <time>2013-01-19T13:37:47Z</time>
      </trkpt>
      <trkpt lat="44.34489" lon="2.5134">
        <ele>610.142</ele>
        <time>2013-01-19T13:37:53Z</time>
      </trkpt>
      <trkpt lat="44.34485" lon="2.51328">
        <ele>609.832</ele>
        <time>2013-01-19T13:37:58Z</time>
      </trkpt>
      <trkpt lat="44.34482" lon="2.51317">
        <ele>609.177</ele>
        <time>2013-01-19T13:38:12Z</time>
      </trkpt>
      <trkpt lat="44.34476" lon="2.51293">
        <ele>609.807</ele>
        <time>2013-01-19T13:38:19Z</time>
      </trkpt>
      <trkpt lat="44.34471" lon="2.51273">
        <ele>609.982</ele>
        <time>2013-01-19T13:38:25Z</time>
      </trkpt>
      <trkpt lat="44.34465" lon="2.51251">
        <ele>609.094</ele>
        <time>2013-01-19T13:38:31Z</time>
      </trkpt>
      <trkpt lat="44.34463" lon="2.51236">
        <ele>607.993</ele>
        <time>2013-01-19T13:38:35Z</time>
      </trkpt>
      <trkpt lat="44.3446" lon="2.51213">
        <ele>606.456</ele>
        <time>2013-01-19T13:38:41Z</time>
      </trkpt>
      <trkpt lat="44.34459" lon="2.51191">
        <ele>607.271</ele>
        <time>2013-01-19T13:38:47Z</time>
      </trkpt>
      <trkpt lat="44.34456" lon="2.51169">
        <ele>608.692</ele>
        <time>2013-01-19T13:38:53Z</time>
      </trkpt>
      <trkpt lat="44.34453" lon="2.51142">
        <ele>608.448</ele>
        <time>2013-01-19T13:39:00Z</time>
      </trkpt>
      <trkpt lat="44.34449" lon="2.51115">
        <ele>608.685</ele>
        <time>2013-01-19T13:39:07Z</time>
      </trkpt>
      <trkpt lat="44.34446" lon="2.51093">
        <ele>609.91</ele>
        <time>2013-01-19T13:39:13Z</time>
      </trkpt>
      <trkpt lat="44.34442" lon="2.51074">
        <ele>609.302</ele>
        <time>2013-01-19T13:39:18Z</time>
      </trkpt>
      <trkpt lat="44.34438" lon="2.51053">
        <ele>609.249</ele>
        <time>2013-01-19T13:39:24Z</time>
      </trkpt>
      <trkpt lat="44.3443" lon="2.51029">
        <ele>611.431</ele>
        <time>2013-01-19T13:39:31Z</time>
      </trkpt>
      <trkpt lat="44.34424" lon="2.5101">
        <ele>612.685</ele>
        <time>2013-01-19T13:39:37Z</time>
      </trkpt>
      <trkpt lat="44.34417" lon="2.50994">
        <ele>612.349</ele>
        <time>2013-01-19T13:39:47Z</time>
      </trkpt>
      <trkpt lat="44.34408" lon="2.50976">
        <ele>612.274</ele>
        <time>2013-01-19T13:39:54Z</time>
      </trkpt>
      <trkpt lat="44.34399" lon="2.50956">
        <ele>612.262</ele>
        <time>2013-01-19T13:40:01Z</time>
      </trkpt>
      <trkpt lat="44.34391" lon="2.50936">
        <ele>611.917</ele>
        <time>2013-01-19T13:40:07Z</time>
      </trkpt>
      <trkpt lat="44.34383" lon="2.50918">
        <ele>612.044</ele>
        <time>2013-01-19T13:40:13Z</time>
      </trkpt>
      <trkpt lat="44.34375" lon="2.509">
        <ele>611.95</ele>
        <time>2013-01-19T13:40:19Z</time>
      </trkpt>
      <trkpt lat="44.3437" lon="2.50888">
        <ele>610.746</ele>
        <time>2013-01-19T13:40:23Z</time>
      </trkpt>
      <trkpt lat="44.3436" lon="2.50864">
        <ele>609.35</ele>
        <time>2013-01-19T13:40:30Z</time>
      </trkpt>
      <trkpt lat="44.34355" lon="2.50844">
        <ele>608.851</ele>
        <time>2013-01-19T13:40:35Z</time>
      </trkpt>
      <trkpt lat="44.3435" lon="2.50827">
        <ele>608.21</ele>
        <time>2013-01-19T13:40:39Z</time>
      </trkpt>
      <trkpt lat="44.34346" lon="2.50803">
        <ele>606.257</ele>
        <time>2013-01-19T13:40:45Z</time>
      </trkpt>
      <trkpt lat="44.34344" lon="2.50778">
        <ele>604.998</ele>
        <time>2013-01-19T13:40:51Z</time>
      </trkpt>
      <trkpt lat="44.34345" lon="2.50755">
        <ele>602.171</ele>
        <time>2013-01-19T13:40:57Z</time>
      </trkpt>
      <trkpt lat="44.34346" lon="2.50739">
        <ele>601.139</ele>
        <time>2013-01-19T13:41:02Z</time>
      </trkpt>
      <trkpt lat="44.34347" lon="2.50719">
        <ele>599.877</ele>
        <time>2013-01-19T13:41:08Z</time>
      </trkpt>
      <trkpt lat="44.34348" lon="2.50703">
        <ele>598.656</ele>
        <time>2013-01-19T13:41:13Z</time>
      </trkpt>
      <trkpt lat="44.34348" lon="2.50686">
        <ele>596.764</ele>
        <time>2013-01-19T13:41:18Z</time>
      </trkpt>
      <trkpt lat="44.34348" lon="2.50671">
        <ele>595.985</ele>
        <time>2013-01-19T13:41:23Z</time>
      </trkpt>
      <trkpt lat="44.34348" lon="2.50649">
        <ele>594.748</ele>
        <time>2013-01-19T13:41:30Z</time>
      </trkpt>
      <trkpt lat="44.34348" lon="2.50624">
        <ele>593.542</ele>
        <time>2013-01-19T13:41:37Z</time>
      </trkpt>
      <trkpt lat="44.34348" lon="2.50598">
        <ele>592.288</ele>
        <time>2013-01-19T13:41:44Z</time>
      </trkpt>
      <trkpt lat="44.34349" lon="2.50578">
        <ele>590.925</ele>
        <time>2013-01-19T13:41:49Z</time>
      </trkpt>
      <trkpt lat="44.34351" lon="2.50551">
        <ele>589.336</ele>
        <time>2013-01-19T13:41:56Z</time>
      </trkpt>
      <trkpt lat="44.34352" lon="2.50532">
        <ele>589.322</ele>
        <time>2013-01-19T13:42:01Z</time>
      </trkpt>
      <trkpt lat="44.34353" lon="2.50514">
        <ele>589.014</ele>
        <time>2013-01-19T13:42:06Z</time>
      </trkpt>
      <trkpt lat="44.34353" lon="2.50492">
        <ele>588.059</ele>
        <time>2013-01-19T13:42:12Z</time>
      </trkpt>
      <trkpt lat="44.34354" lon="2.50468">
        <ele>586.264</ele>
        <time>2013-01-19T13:42:18Z</time>
      </trkpt>
      <trkpt lat="44.34354" lon="2.50448">
        <ele>584.796</ele>
        <time>2013-01-19T13:42:23Z</time>
      </trkpt>
      <trkpt lat="44.34355" lon="2.50437">
        <ele>583.721</ele>
        <time>2013-01-19T13:42:27Z</time>
      </trkpt>
      <trkpt lat="44.34353" lon="2.50409">
        <ele>584.05</ele>
        <time>2013-01-19T13:42:32Z</time>
      </trkpt>
      <trkpt lat="44.3435" lon="2.5039">
        <ele>584.06</ele>
        <time>2013-01-19T13:42:37Z</time>
      </trkpt>
      <trkpt lat="44.34342" lon="2.50371">
        <ele>583.828</ele>
        <time>2013-01-19T13:42:42Z</time>
      </trkpt>
      <trkpt lat="44.34333" lon="2.50355">
        <ele>584.351</ele>
        <time>2013-01-19T13:42:47Z</time>
      </trkpt>
      <trkpt lat="44.34322" lon="2.50342">
        <ele>583.229</ele>
        <time>2013-01-19T13:42:53Z</time>
      </trkpt>
      <trkpt lat="44.34314" lon="2.50333">
        <ele>582.047</ele>
        <time>2013-01-19T13:42:56Z</time>
      </trkpt>
      <trkpt lat="44.34305" lon="2.50316">
        <ele>580.243</ele>
        <time>2013-01-19T13:43:01Z</time>
      </trkpt>
      <trkpt lat="44.34298" lon="2.50295">
        <ele>579.017</ele>
        <time>2013-01-19T13:43:06Z</time>
      </trkpt>
      <trkpt lat="44.34292" lon="2.50278">
        <ele>578.718</ele>
        <time>2013-01-19T13:43:10Z</time>
      </trkpt>
      <trkpt lat="44.34284" lon="2.50258">
        <ele>577.677</ele>
        <time>2013-01-19T13:43:15Z</time>
      </trkpt>
      <trkpt lat="44.34276" lon="2.5024">
        <ele>576.102</ele>
        <time>2013-01-19T13:43:20Z</time>
      </trkpt>
      <trkpt lat="44.34266" lon="2.50223">
        <ele>574.616</ele>
        <time>2013-01-19T13:43:25Z</time>
      </trkpt>
      <trkpt lat="44.34257" lon="2.50207">
        <ele>573.445</ele>
        <time>2013-01-19T13:43:30Z</time>
      </trkpt>
      <trkpt lat="44.3425" lon="2.50195">
        <ele>572.033</ele>
        <time>2013-01-19T13:43:34Z</time>
      </trkpt>
      <trkpt lat="44.34248" lon="2.50191">
        <ele>571.683</ele>
        <time>2013-01-19T13:43:35Z</time>
      </trkpt>
      <trkpt lat="44.34245" lon="2.50182">
        <ele>571.112</ele>
        <time>2013-01-19T13:43:37Z</time>
      </trkpt>
      <trkpt lat="44.3424" lon="2.50159">
        <ele>569.834</ele>
        <time>2013-01-19T13:43:43Z</time>
      </trkpt>
      <trkpt lat="44.34238" lon="2.50147">
        <ele>571.505</ele>
        <time>2013-01-19T13:43:51Z</time>
      </trkpt>
      <trkpt lat="44.34238" lon="2.50145">
        <ele>570.223</ele>
        <time>2013-01-19T13:43:56Z</time>
      </trkpt>
      <trkpt lat="44.34238" lon="2.50145">
        <ele>569.299</ele>
        <time>2013-01-19T13:44:27Z</time>
      </trkpt>
      <trkpt lat="44.34238" lon="2.50145">
        <ele>569.601</ele>
        <time>2013-01-19T13:44:28Z</time>
      </trkpt>
      <trkpt lat="44.34238" lon="2.50145">
        <ele>573.459</ele>
        <time>2013-01-19T13:44:54Z</time>
      </trkpt>
      <trkpt lat="44.34239" lon="2.50134">
        <ele>572.508</ele>
        <time>2013-01-19T13:45:08Z</time>
      </trkpt>
      <trkpt lat="44.34239" lon="2.50125">
        <ele>571.408</ele>
        <time>2013-01-19T13:45:12Z</time>
      </trkpt>
      <trkpt lat="44.34234" lon="2.50107">
        <ele>570.979</ele>
        <time>2013-01-19T13:45:19Z</time>
      </trkpt>
      <trkpt lat="44.34233" lon="2.50099">
        <ele>570.318</ele>
        <time>2013-01-19T13:45:22Z</time>
      </trkpt>
      <trkpt lat="44.34228" lon="2.50081">
        <ele>568.228</ele>
        <time>2013-01-19T13:45:29Z</time>
      </trkpt>
      <trkpt lat="44.34225" lon="2.50068">
        <ele>566.267</ele>
        <time>2013-01-19T13:45:34Z</time>
      </trkpt>
      <trkpt lat="44.34218" lon="2.50049">
        <ele>565.218</ele>
        <time>2013-01-19T13:45:40Z</time>
      </trkpt>
      <trkpt lat="44.34207" lon="2.5004">
        <ele>564.277</ele>
        <time>2013-01-19T13:45:45Z</time>
      </trkpt>
      <trkpt lat="44.34193" lon="2.50043">
        <ele>562.877</ele>
        <time>2013-01-19T13:45:51Z</time>
      </trkpt>
      <trkpt lat="44.34182" lon="2.5004">
        <ele>560.456</ele>
        <time>2013-01-19T13:45:57Z</time>
      </trkpt>
      <trkpt lat="44.34174" lon="2.50032">
        <ele>557.647</ele>
        <time>2013-01-19T13:46:02Z</time>
      </trkpt>
      <trkpt lat="44.34173" lon="2.5003">
        <ele>557.357</ele>
        <time>2013-01-19T13:46:03Z</time>
      </trkpt>
      <trkpt lat="44.34165" lon="2.50021">
        <ele>557.698</ele>
        <time>2013-01-19T13:46:08Z</time>
      </trkpt>
      <trkpt lat="44.34163" lon="2.50019">
        <ele>557.798</ele>
        <time>2013-01-19T13:46:09Z</time>
      </trkpt>
      <trkpt lat="44.34149" lon="2.50002">
        <ele>555.636</ele>
        <time>2013-01-19T13:46:16Z</time>
      </trkpt>
      <trkpt lat="44.34139" lon="2.49989">
        <ele>553.717</ele>
        <time>2013-01-19T13:46:21Z</time>
      </trkpt>
      <trkpt lat="44.34137" lon="2.49986">
        <ele>553.377</ele>
        <time>2013-01-19T13:46:22Z</time>
      </trkpt>
      <trkpt lat="44.34126" lon="2.49967">
        <ele>552.327</ele>
        <time>2013-01-19T13:46:27Z</time>
      </trkpt>
      <trkpt lat="44.34121" lon="2.49953">
        <ele>551.107</ele>
        <time>2013-01-19T13:46:31Z</time>
      </trkpt>
      <trkpt lat="44.34116" lon="2.49933">
        <ele>548.546</ele>
        <time>2013-01-19T13:46:36Z</time>
      </trkpt>
      <trkpt lat="44.34113" lon="2.49916">
        <ele>546.126</ele>
        <time>2013-01-19T13:46:41Z</time>
      </trkpt>
      <trkpt lat="44.34112" lon="2.49912">
        <ele>545.796</ele>
        <time>2013-01-19T13:46:42Z</time>
      </trkpt>
      <trkpt lat="44.34107" lon="2.499">
        <ele>543.406</ele>
        <time>2013-01-19T13:46:47Z</time>
      </trkpt>
      <trkpt lat="44.34106" lon="2.49899">
        <ele>543.016</ele>
        <time>2013-01-19T13:46:48Z</time>
      </trkpt>
      <trkpt lat="44.34102" lon="2.49893">
        <ele>541.646</ele>
        <time>2013-01-19T13:46:51Z</time>
      </trkpt>
      <trkpt lat="44.34101" lon="2.49886">
        <ele>538.546</ele>
        <time>2013-01-19T13:46:56Z</time>
      </trkpt>
      <trkpt lat="44.34093" lon="2.49867">
        <ele>535.635</ele>
        <time>2013-01-19T13:47:01Z</time>
      </trkpt>
      <trkpt lat="44.34091" lon="2.49868">
        <ele>535.166</ele>
        <time>2013-01-19T13:47:02Z</time>
      </trkpt>
      <trkpt lat="44.34087" lon="2.49868">
        <ele>532.956</ele>
        <time>2013-01-19T13:47:06Z</time>
      </trkpt>
      <trkpt lat="44.34081" lon="2.49866">
        <ele>530.746</ele>
        <time>2013-01-19T13:47:10Z</time>
      </trkpt>
      <trkpt lat="44.34078" lon="2.49865">
        <ele>527.475</ele>
        <time>2013-01-19T13:47:15Z</time>
      </trkpt>
      <trkpt lat="44.34075" lon="2.49855">
        <ele>524.494</ele>
        <time>2013-01-19T13:47:19Z</time>
      </trkpt>
      <trkpt lat="44.34075" lon="2.49856">
        <ele>522.944</ele>
        <time>2013-01-19T13:47:22Z</time>
      </trkpt>
      <trkpt lat="44.34074" lon="2.49867">
        <ele>522.255</ele>
        <time>2013-01-19T13:47:25Z</time>
      </trkpt>
      <trkpt lat="44.34074" lon="2.49862">
        <ele>521.666</ele>
        <time>2013-01-19T13:47:29Z</time>
      </trkpt>
      <trkpt lat="44.34022" lon="2.4986">
        <ele>521.667</ele>
        <time>2013-01-19T13:47:32Z</time>
      </trkpt>
      <trkpt lat="44.34056" lon="2.49847">
        <ele>520.997</ele>
        <time>2013-01-19T13:47:35Z</time>
      </trkpt>
      <trkpt lat="44.3406" lon="2.4984">
        <ele>520.077</ele>
        <time>2013-01-19T13:47:38Z</time>
      </trkpt>
      <trkpt lat="44.34059" lon="2.49835">
        <ele>518.486</ele>
        <time>2013-01-19T13:47:41Z</time>
      </trkpt>
      <trkpt lat="44.34065" lon="2.49825">
        <ele>517.797</ele>
        <time>2013-01-19T13:47:44Z</time>
      </trkpt>
      <trkpt lat="44.34077" lon="2.4981">
        <ele>515.547</ele>
        <time>2013-01-19T13:47:50Z</time>
      </trkpt>
      <trkpt lat="44.3409" lon="2.49801">
        <ele>513.105</ele>
        <time>2013-01-19T13:47:55Z</time>
      </trkpt>
      <trkpt lat="44.34095" lon="2.49801">
        <ele>511.515</ele>
        <time>2013-01-19T13:47:57Z</time>
      </trkpt>
      <trkpt lat="44.341" lon="2.498">
        <ele>510.195</ele>
        <time>2013-01-19T13:47:59Z</time>
      </trkpt>
      <trkpt lat="44.34105" lon="2.49796">
        <ele>508.315</ele>
        <time>2013-01-19T13:48:02Z</time>
      </trkpt>
      <trkpt lat="44.34099" lon="2.498">
        <ele>508.566</ele>
        <time>2013-01-19T13:48:07Z</time>
      </trkpt>
      <trkpt lat="44.34086" lon="2.49803">
        <ele>508.797</ele>
        <time>2013-01-19T13:48:12Z</time>
      </trkpt>
      <trkpt lat="44.34077" lon="2.4981">
        <ele>508.006</ele>
        <time>2013-01-19T13:48:16Z</time>
      </trkpt>
      <trkpt lat="44.34072" lon="2.49814">
        <ele>506.536</ele>
        <time>2013-01-19T13:48:20Z</time>
      </trkpt>
      <trkpt lat="44.34051" lon="2.49801">
        <ele>506.897</ele>
        <time>2013-01-19T13:48:24Z</time>
      </trkpt>
      <trkpt lat="44.34041" lon="2.49807">
        <ele>506.137</ele>
        <time>2013-01-19T13:48:27Z</time>
      </trkpt>
      <trkpt lat="44.3402" lon="2.4979">
        <ele>506.037</ele>
        <time>2013-01-19T13:48:34Z</time>
      </trkpt>
      <trkpt lat="44.34012" lon="2.49778">
        <ele>505.537</ele>
        <time>2013-01-19T13:48:38Z</time>
      </trkpt>
      <trkpt lat="44.34002" lon="2.49767">
        <ele>505.486</ele>
        <time>2013-01-19T13:48:42Z</time>
      </trkpt>
      <trkpt lat="44.33991" lon="2.49758">
        <ele>505.837</ele>
        <time>2013-01-19T13:48:46Z</time>
      </trkpt>
      <trkpt lat="44.33988" lon="2.49741">
        <ele>506.138</ele>
        <time>2013-01-19T13:48:50Z</time>
      </trkpt>
      <trkpt lat="44.3398" lon="2.49717">
        <ele>507.148</ele>
        <time>2013-01-19T13:48:56Z</time>
      </trkpt>
      <trkpt lat="44.33971" lon="2.49698">
        <ele>508.229</ele>
        <time>2013-01-19T13:49:01Z</time>
      </trkpt>
      <trkpt lat="44.33963" lon="2.49679">
        <ele>508.349</ele>
        <time>2013-01-19T13:49:06Z</time>
      </trkpt>
      <trkpt lat="44.3396" lon="2.49658">
        <ele>506.417</ele>
        <time>2013-01-19T13:49:11Z</time>
      </trkpt>
      <trkpt lat="44.33961" lon="2.49632">
        <ele>502.916</ele>
        <time>2013-01-19T13:49:17Z</time>
      </trkpt>
      <trkpt lat="44.33967" lon="2.49611">
        <ele>500.276</ele>
        <time>2013-01-19T13:49:22Z</time>
      </trkpt>
      <trkpt lat="44.33975" lon="2.49593">
        <ele>500.969</ele>
        <time>2013-01-19T13:49:27Z</time>
      </trkpt>
      <trkpt lat="44.33984" lon="2.49577">
        <ele>503.399</ele>
        <time>2013-01-19T13:49:32Z</time>
      </trkpt>
      <trkpt lat="44.33992" lon="2.49563">
        <ele>504.718</ele>
        <time>2013-01-19T13:49:36Z</time>
      </trkpt>
      <trkpt lat="44.33996" lon="2.49556">
        <ele>505.138</ele>
        <time>2013-01-19T13:49:38Z</time>
      </trkpt>
      <trkpt lat="44.33994" lon="2.49542">
        <ele>505.848</ele>
        <time>2013-01-19T13:49:43Z</time>
      </trkpt>
      <trkpt lat="44.33981" lon="2.49549">
        <ele>504.496</ele>
        <time>2013-01-19T13:49:49Z</time>
      </trkpt>
      <trkpt lat="44.33966" lon="2.49556">
        <ele>502.955</ele>
        <time>2013-01-19T13:49:57Z</time>
      </trkpt>
      <trkpt lat="44.33957" lon="2.4956">
        <ele>501.826</ele>
        <time>2013-01-19T13:50:01Z</time>
      </trkpt>
      <trkpt lat="44.33947" lon="2.49564">
        <ele>500.566</ele>
        <time>2013-01-19T13:50:05Z</time>
      </trkpt>
      <trkpt lat="44.33931" lon="2.49565">
        <ele>500.847</ele>
        <time>2013-01-19T13:50:11Z</time>
      </trkpt>
      <trkpt lat="44.33916" lon="2.49563">
        <ele>499.827</ele>
        <time>2013-01-19T13:50:17Z</time>
      </trkpt>
      <trkpt lat="44.33913" lon="2.49561">
        <ele>499.906</ele>
        <time>2013-01-19T13:50:22Z</time>
      </trkpt>
      <trkpt lat="44.33888" lon="2.49544">
        <ele>499.576</ele>
        <time>2013-01-19T13:50:27Z</time>
      </trkpt>
      <trkpt lat="44.33886" lon="2.49542">
        <ele>499.396</ele>
        <time>2013-01-19T13:50:28Z</time>
      </trkpt>
      <trkpt lat="44.33876" lon="2.49526">
        <ele>498.806</ele>
        <time>2013-01-19T13:50:33Z</time>
      </trkpt>
      <trkpt lat="44.33863" lon="2.49505">
        <ele>498.406</ele>
        <time>2013-01-19T13:50:39Z</time>
      </trkpt>
      <trkpt lat="44.33849" lon="2.49483">
        <ele>496.285</ele>
        <time>2013-01-19T13:50:45Z</time>
      </trkpt>
      <trkpt lat="44.33838" lon="2.49465">
        <ele>493.895</ele>
        <time>2013-01-19T13:50:50Z</time>
      </trkpt>
      <trkpt lat="44.33826" lon="2.49447">
        <ele>494.718</ele>
        <time>2013-01-19T13:50:55Z</time>
      </trkpt>
      <trkpt lat="44.33813" lon="2.49426">
        <ele>495.628</ele>
        <time>2013-01-19T13:51:01Z</time>
      </trkpt>
      <trkpt lat="44.338" lon="2.49406">
        <ele>496.218</ele>
        <time>2013-01-19T13:51:07Z</time>
      </trkpt>
      <trkpt lat="44.33788" lon="2.49387">
        <ele>497.358</ele>
        <time>2013-01-19T13:51:13Z</time>
      </trkpt>
      <trkpt lat="44.3378" lon="2.49374">
        <ele>497.017</ele>
        <time>2013-01-19T13:51:17Z</time>
      </trkpt>
      <trkpt lat="44.33771" lon="2.49358">
        <ele>498.097</ele>
        <time>2013-01-19T13:51:22Z</time>
      </trkpt>
      <trkpt lat="44.33767" lon="2.49352">
        <ele>498.927</ele>
        <time>2013-01-19T13:51:24Z</time>
      </trkpt>
      <trkpt lat="44.33761" lon="2.49343">
        <ele>499.557</ele>
        <time>2013-01-19T13:51:28Z</time>
      </trkpt>
      <trkpt lat="44.33768" lon="2.49323">
        <ele>498.427</ele>
        <time>2013-01-19T13:51:32Z</time>
      </trkpt>
      <trkpt lat="44.33773" lon="2.49313">
        <ele>497.726</ele>
        <time>2013-01-19T13:51:35Z</time>
      </trkpt>
      <trkpt lat="44.33782" lon="2.49293">
        <ele>496.205</ele>
        <time>2013-01-19T13:51:41Z</time>
      </trkpt>
      <trkpt lat="44.33788" lon="2.49276">
        <ele>497.787</ele>
        <time>2013-01-19T13:51:46Z</time>
      </trkpt>
      <trkpt lat="44.33794" lon="2.49259">
        <ele>498.397</ele>
        <time>2013-01-19T13:51:51Z</time>
      </trkpt>
      <trkpt lat="44.33808" lon="2.49241">
        <ele>500.517</ele>
        <time>2013-01-19T13:51:58Z</time>
      </trkpt>
      <trkpt lat="44.33814" lon="2.49229">
        <ele>503.518</ele>
        <time>2013-01-19T13:52:03Z</time>
      </trkpt>
      <trkpt lat="44.33814" lon="2.49228">
        <ele>504.158</ele>
        <time>2013-01-19T13:52:04Z</time>
      </trkpt>
      <trkpt lat="44.33815" lon="2.49219">
        <ele>504.996</ele>
        <time>2013-01-19T13:52:09Z</time>
      </trkpt>
      <trkpt lat="44.33821" lon="2.49203">
        <ele>506.557</ele>
        <time>2013-01-19T13:52:18Z</time>
      </trkpt>
      <trkpt lat="44.33828" lon="2.49195">
        <ele>507.186</ele>
        <time>2013-01-19T13:52:25Z</time>
      </trkpt>
      <trkpt lat="44.3384" lon="2.49186">
        <ele>507.626</ele>
        <time>2013-01-19T13:52:34Z</time>
      </trkpt>
      <trkpt lat="44.3384" lon="2.49175">
        <ele>506.895</ele>
        <time>2013-01-19T13:52:39Z</time>
      </trkpt>
      <trkpt lat="44.33834" lon="2.49176">
        <ele>506.245</ele>
        <time>2013-01-19T13:52:41Z</time>
      </trkpt>
      <trkpt lat="44.33819" lon="2.49186">
        <ele>504.044</ele>
        <time>2013-01-19T13:52:47Z</time>
      </trkpt>
      <trkpt lat="44.33802" lon="2.49193">
        <ele>501.133</ele>
        <time>2013-01-19T13:52:52Z</time>
      </trkpt>
      <trkpt lat="44.33777" lon="2.49203">
        <ele>497.574</ele>
        <time>2013-01-19T13:52:59Z</time>
      </trkpt>
      <trkpt lat="44.3376" lon="2.4921">
        <ele>494.352</ele>
        <time>2013-01-19T13:53:04Z</time>
      </trkpt>
      <trkpt lat="44.33743" lon="2.49217">
        <ele>491.954</ele>
        <time>2013-01-19T13:53:09Z</time>
      </trkpt>
      <trkpt lat="44.3374" lon="2.49218">
        <ele>491.404</ele>
        <time>2013-01-19T13:53:10Z</time>
      </trkpt>
      <trkpt lat="44.33726" lon="2.49237">
        <ele>489.744</ele>
        <time>2013-01-19T13:53:15Z</time>
      </trkpt>
      <trkpt lat="44.33716" lon="2.49245">
        <ele>488.164</ele>
        <time>2013-01-19T13:53:19Z</time>
      </trkpt>
      <trkpt lat="44.33698" lon="2.49258">
        <ele>488.195</ele>
        <time>2013-01-19T13:53:25Z</time>
      </trkpt>
      <trkpt lat="44.33694" lon="2.49264">
        <ele>487.966</ele>
        <time>2013-01-19T13:53:27Z</time>
      </trkpt>
      <trkpt lat="44.3368" lon="2.49279">
        <ele>486.924</ele>
        <time>2013-01-19T13:53:33Z</time>
      </trkpt>
      <trkpt lat="44.33675" lon="2.49284">
        <ele>486.234</ele>
        <time>2013-01-19T13:53:35Z</time>
      </trkpt>
      <trkpt lat="44.33665" lon="2.49304">
        <ele>485.454</ele>
        <time>2013-01-19T13:53:40Z</time>
      </trkpt>
      <trkpt lat="44.33662" lon="2.49313">
        <ele>485.425</ele>
        <time>2013-01-19T13:53:43Z</time>
      </trkpt>
      <trkpt lat="44.33656" lon="2.49328">
        <ele>486.256</ele>
        <time>2013-01-19T13:53:48Z</time>
      </trkpt>
      <trkpt lat="44.33647" lon="2.49343">
        <ele>486.507</ele>
        <time>2013-01-19T13:53:57Z</time>
      </trkpt>
      <trkpt lat="44.33641" lon="2.49352">
        <ele>485.646</ele>
        <time>2013-01-19T13:54:03Z</time>
      </trkpt>
      <trkpt lat="44.33634" lon="2.49361">
        <ele>486.106</ele>
        <time>2013-01-19T13:54:10Z</time>
      </trkpt>
      <trkpt lat="44.33625" lon="2.49372">
        <ele>488.096</ele>
        <time>2013-01-19T13:54:16Z</time>
      </trkpt>
      <trkpt lat="44.33612" lon="2.49379">
        <ele>490.026</ele>
        <time>2013-01-19T13:54:22Z</time>
      </trkpt>
      <trkpt lat="44.33604" lon="2.49381">
        <ele>489.455</ele>
        <time>2013-01-19T13:54:28Z</time>
      </trkpt>
      <trkpt lat="44.33593" lon="2.49385">
        <ele>488.905</ele>
        <time>2013-01-19T13:54:35Z</time>
      </trkpt>
      <trkpt lat="44.3359" lon="2.49386">
        <ele>488.525</ele>
        <time>2013-01-19T13:54:41Z</time>
      </trkpt>
      <trkpt lat="44.33585" lon="2.49391">
        <ele>488.055</ele>
        <time>2013-01-19T13:54:45Z</time>
      </trkpt>
      <trkpt lat="44.33581" lon="2.49394">
        <ele>488.304</ele>
        <time>2013-01-19T13:54:49Z</time>
      </trkpt>
      <trkpt lat="44.33559" lon="2.49366">
        <ele>487.993</ele>
        <time>2013-01-19T13:54:56Z</time>
      </trkpt>
      <trkpt lat="44.33549" lon="2.49369">
        <ele>489.395</ele>
        <time>2013-01-19T13:55:01Z</time>
      </trkpt>
      <trkpt lat="44.33536" lon="2.49374">
        <ele>490.756</ele>
        <time>2013-01-19T13:55:05Z</time>
      </trkpt>
      <trkpt lat="44.33527" lon="2.49377">
        <ele>491.085</ele>
        <time>2013-01-19T13:55:08Z</time>
      </trkpt>
      <trkpt lat="44.33508" lon="2.49384">
        <ele>494.146</ele>
        <time>2013-01-19T13:55:14Z</time>
      </trkpt>
      <trkpt lat="44.33489" lon="2.49393">
        <ele>498.007</ele>
        <time>2013-01-19T13:55:20Z</time>
      </trkpt>
      <trkpt lat="44.33479" lon="2.49397">
        <ele>498.926</ele>
        <time>2013-01-19T13:55:24Z</time>
      </trkpt>
      <trkpt lat="44.33465" lon="2.49399">
        <ele>500.295</ele>
        <time>2013-01-19T13:55:28Z</time>
      </trkpt>
      <trkpt lat="44.3345" lon="2.49402">
        <ele>500.815</ele>
        <time>2013-01-19T13:55:33Z</time>
      </trkpt>
      <trkpt lat="44.33443" lon="2.49403">
        <ele>500.734</ele>
        <time>2013-01-19T13:55:35Z</time>
      </trkpt>
      <trkpt lat="44.33426" lon="2.49406">
        <ele>498.184</ele>
        <time>2013-01-19T13:55:41Z</time>
      </trkpt>
      <trkpt lat="44.33408" lon="2.49411">
        <ele>495.923</ele>
        <time>2013-01-19T13:55:47Z</time>
      </trkpt>
      <trkpt lat="44.33397" lon="2.49414">
        <ele>494.663</ele>
        <time>2013-01-19T13:55:51Z</time>
      </trkpt>
      <trkpt lat="44.33387" lon="2.49419">
        <ele>496.124</ele>
        <time>2013-01-19T13:55:55Z</time>
      </trkpt>
      <trkpt lat="44.33375" lon="2.49425">
        <ele>495.894</ele>
        <time>2013-01-19T13:55:59Z</time>
      </trkpt>
      <trkpt lat="44.33357" lon="2.49437">
        <ele>500.006</ele>
        <time>2013-01-19T13:56:05Z</time>
      </trkpt>
      <trkpt lat="44.33341" lon="2.49448">
        <ele>503.366</ele>
        <time>2013-01-19T13:56:10Z</time>
      </trkpt>
      <trkpt lat="44.33328" lon="2.49454">
        <ele>502.016</ele>
        <time>2013-01-19T13:56:15Z</time>
      </trkpt>
      <trkpt lat="44.33325" lon="2.49454">
        <ele>497.614</ele>
        <time>2013-01-19T13:56:19Z</time>
      </trkpt>
      <trkpt lat="44.33325" lon="2.49454">
        <ele>494.263</ele>
        <time>2013-01-19T13:56:22Z</time>
      </trkpt>
      <trkpt lat="44.33319" lon="2.49454">
        <ele>492.311</ele>
        <time>2013-01-19T13:56:25Z</time>
      </trkpt>
      <trkpt lat="44.33314" lon="2.49454">
        <ele>491.344</ele>
        <time>2013-01-19T13:56:30Z</time>
      </trkpt>
      <trkpt lat="44.33309" lon="2.49454">
        <ele>490.394</ele>
        <time>2013-01-19T13:56:37Z</time>
      </trkpt>
      <trkpt lat="44.33301" lon="2.49453">
        <ele>487.673</ele>
        <time>2013-01-19T13:56:42Z</time>
      </trkpt>
      <trkpt lat="44.33292" lon="2.49453">
        <ele>486.783</ele>
        <time>2013-01-19T13:56:46Z</time>
      </trkpt>
      <trkpt lat="44.33273" lon="2.49453">
        <ele>490.654</ele>
        <time>2013-01-19T13:56:52Z</time>
      </trkpt>
      <trkpt lat="44.33267" lon="2.49452">
        <ele>489.514</ele>
        <time>2013-01-19T13:56:54Z</time>
      </trkpt>
      <trkpt lat="44.33246" lon="2.49452">
        <ele>491.755</ele>
        <time>2013-01-19T13:57:01Z</time>
      </trkpt>
      <trkpt lat="44.33232" lon="2.49448">
        <ele>491.343</ele>
        <time>2013-01-19T13:57:06Z</time>
      </trkpt>
      <trkpt lat="44.33219" lon="2.49444">
        <ele>489.603</ele>
        <time>2013-01-19T13:57:11Z</time>
      </trkpt>
      <trkpt lat="44.33212" lon="2.49438">
        <ele>486.722</ele>
        <time>2013-01-19T13:57:16Z</time>
      </trkpt>
      <trkpt lat="44.33212" lon="2.49438">
        <ele>484.667</ele>
        <time>2013-01-19T13:57:19Z</time>
      </trkpt>
      <trkpt lat="44.33212" lon="2.49438">
        <ele>485.074</ele>
        <time>2013-01-19T13:57:26Z</time>
      </trkpt>
      <trkpt lat="44.33212" lon="2.49438">
        <ele>481.473</ele>
        <time>2013-01-19T13:57:41Z</time>
      </trkpt>
      <trkpt lat="44.33212" lon="2.49438">
        <ele>483.577</ele>
        <time>2013-01-19T13:57:45Z</time>
      </trkpt>
      <trkpt lat="44.33207" lon="2.49432">
        <ele>487.475</ele>
        <time>2013-01-19T13:57:50Z</time>
      </trkpt>
      <trkpt lat="44.33207" lon="2.49432">
        <ele>489.423</ele>
        <time>2013-01-19T13:57:51Z</time>
      </trkpt>
      <trkpt lat="44.33177" lon="2.4947">
        <ele>486.022</ele>
        <time>2013-01-19T13:58:05Z</time>
      </trkpt>
      <trkpt lat="44.33204" lon="2.49426">
        <ele>491.655</ele>
        <time>2013-01-19T13:58:10Z</time>
      </trkpt>
      <trkpt lat="44.33159" lon="2.49477">
        <ele>492.655</ele>
        <time>2013-01-19T13:58:13Z</time>
      </trkpt>
      <trkpt lat="44.33141" lon="2.49491">
        <ele>499.958</ele>
        <time>2013-01-19T13:58:19Z</time>
      </trkpt>
      <trkpt lat="44.33134" lon="2.49497">
        <ele>501.376</ele>
        <time>2013-01-19T13:58:23Z</time>
      </trkpt>
      <trkpt lat="44.33123" lon="2.49502">
        <ele>502.415</ele>
        <time>2013-01-19T13:58:28Z</time>
      </trkpt>
      <trkpt lat="44.33115" lon="2.49511">
        <ele>504.155</ele>
        <time>2013-01-19T13:58:32Z</time>
      </trkpt>
      <trkpt lat="44.33103" lon="2.49522">
        <ele>504.055</ele>
        <time>2013-01-19T13:58:38Z</time>
      </trkpt>
      <trkpt lat="44.33101" lon="2.49524">
        <ele>504.655</ele>
        <time>2013-01-19T13:58:39Z</time>
      </trkpt>
      <trkpt lat="44.331" lon="2.49531">
        <ele>506.405</ele>
        <time>2013-01-19T13:58:42Z</time>
      </trkpt>
      <trkpt lat="44.33098" lon="2.49536">
        <ele>506.924</ele>
        <time>2013-01-19T13:58:45Z</time>
      </trkpt>
      <trkpt lat="44.331" lon="2.49549">
        <ele>505.634</ele>
        <time>2013-01-19T13:58:51Z</time>
      </trkpt>
      <trkpt lat="44.33101" lon="2.49561">
        <ele>508.464</ele>
        <time>2013-01-19T13:58:58Z</time>
      </trkpt>
      <trkpt lat="44.33101" lon="2.49563">
        <ele>508.398</ele>
        <time>2013-01-19T13:59:00Z</time>
      </trkpt>
      <trkpt lat="44.331" lon="2.49572">
        <ele>509.357</ele>
        <time>2013-01-19T13:59:06Z</time>
      </trkpt>
      <trkpt lat="44.33098" lon="2.49576">
        <ele>510.764</ele>
        <time>2013-01-19T13:59:11Z</time>
      </trkpt>
      <trkpt lat="44.33095" lon="2.49583">
        <ele>510.794</ele>
        <time>2013-01-19T13:59:17Z</time>
      </trkpt>
      <trkpt lat="44.33093" lon="2.49586">
        <ele>511.806</ele>
        <time>2013-01-19T13:59:19Z</time>
      </trkpt>
      <trkpt lat="44.33091" lon="2.49591">
        <ele>511.954</ele>
        <time>2013-01-19T13:59:23Z</time>
      </trkpt>
      <trkpt lat="44.33087" lon="2.49595">
        <ele>510.353</ele>
        <time>2013-01-19T13:59:27Z</time>
      </trkpt>
      <trkpt lat="44.33086" lon="2.49598">
        <ele>510.423</ele>
        <time>2013-01-19T13:59:29Z</time>
      </trkpt>
      <trkpt lat="44.33085" lon="2.49602">
        <ele>509.743</ele>
        <time>2013-01-19T13:59:31Z</time>
      </trkpt>
      <trkpt lat="44.33083" lon="2.49611">
        <ele>511.884</ele>
        <time>2013-01-19T13:59:38Z</time>
      </trkpt>
      <trkpt lat="44.3308" lon="2.49616">
        <ele>510.384</ele>
        <time>2013-01-19T13:59:44Z</time>
      </trkpt>
      <trkpt lat="44.3308" lon="2.49622">
        <ele>512.885</ele>
        <time>2013-01-19T13:59:49Z</time>
      </trkpt>
      <trkpt lat="44.33079" lon="2.49624">
        <ele>513.165</ele>
        <time>2013-01-19T13:59:50Z</time>
      </trkpt>
      <trkpt lat="44.33079" lon="2.49634">
        <ele>517.765</ele>
        <time>2013-01-19T13:59:55Z</time>
      </trkpt>
      <trkpt lat="44.3308" lon="2.49636">
        <ele>518.436</ele>
        <time>2013-01-19T13:59:56Z</time>
      </trkpt>
      <trkpt lat="44.33074" lon="2.49646">
        <ele>522.495</ele>
        <time>2013-01-19T14:00:03Z</time>
      </trkpt>
      <trkpt lat="44.33071" lon="2.49653">
        <ele>523.155</ele>
        <time>2013-01-19T14:00:07Z</time>
      </trkpt>
      <trkpt lat="44.33068" lon="2.49658">
        <ele>524.995</ele>
        <time>2013-01-19T14:00:12Z</time>
      </trkpt>
      <trkpt lat="44.33061" lon="2.49664">
        <ele>528.704</ele>
        <time>2013-01-19T14:00:17Z</time>
      </trkpt>
      <trkpt lat="44.33055" lon="2.49672">
        <ele>531.704</ele>
        <time>2013-01-19T14:00:23Z</time>
      </trkpt>
      <trkpt lat="44.3305" lon="2.49678">
        <ele>535.175</ele>
        <time>2013-01-19T14:00:28Z</time>
      </trkpt>
      <trkpt lat="44.3305" lon="2.4968">
        <ele>535.099</ele>
        <time>2013-01-19T14:00:30Z</time>
      </trkpt>
      <trkpt lat="44.33047" lon="2.49687">
        <ele>535.904</ele>
        <time>2013-01-19T14:00:35Z</time>
      </trkpt>
      <trkpt lat="44.33037" lon="2.49696">
        <ele>540.724</ele>
        <time>2013-01-19T14:00:43Z</time>
      </trkpt>
      <trkpt lat="44.33036" lon="2.49697">
        <ele>540.364</ele>
        <time>2013-01-19T14:00:44Z</time>
      </trkpt>
      <trkpt lat="44.33031" lon="2.49701">
        <ele>539.044</ele>
        <time>2013-01-19T14:00:50Z</time>
      </trkpt>
      <trkpt lat="44.3303" lon="2.49702">
        <ele>539.824</ele>
        <time>2013-01-19T14:00:51Z</time>
      </trkpt>
      <trkpt lat="44.33024" lon="2.49709">
        <ele>537.894</ele>
        <time>2013-01-19T14:00:58Z</time>
      </trkpt>
      <trkpt lat="44.33021" lon="2.49712">
        <ele>537.293</ele>
        <time>2013-01-19T14:01:01Z</time>
      </trkpt>
      <trkpt lat="44.3302" lon="2.49715">
        <ele>537.723</ele>
        <time>2013-01-19T14:01:03Z</time>
      </trkpt>
      <trkpt lat="44.33016" lon="2.49722">
        <ele>535.993</ele>
        <time>2013-01-19T14:01:09Z</time>
      </trkpt>
      <trkpt lat="44.33009" lon="2.49729">
        <ele>537.464</ele>
        <time>2013-01-19T14:01:16Z</time>
      </trkpt>
      <trkpt lat="44.33004" lon="2.49731">
        <ele>538.183</ele>
        <time>2013-01-19T14:01:19Z</time>
      </trkpt>
      <trkpt lat="44.32997" lon="2.4974">
        <ele>538.633</ele>
        <time>2013-01-19T14:01:24Z</time>
      </trkpt>
      <trkpt lat="44.32989" lon="2.49753">
        <ele>538.553</ele>
        <time>2013-01-19T14:01:31Z</time>
      </trkpt>
      <trkpt lat="44.32983" lon="2.49766">
        <ele>538.833</ele>
        <time>2013-01-19T14:01:37Z</time>
      </trkpt>
      <trkpt lat="44.32981" lon="2.49774">
        <ele>540.163</ele>
        <time>2013-01-19T14:01:41Z</time>
      </trkpt>
      <trkpt lat="44.32986" lon="2.49777">
        <ele>541.974</ele>
        <time>2013-01-19T14:01:45Z</time>
      </trkpt>
      <trkpt lat="44.32987" lon="2.49775">
        <ele>541.374</ele>
        <time>2013-01-19T14:01:46Z</time>
      </trkpt>
      <trkpt lat="44.32992" lon="2.49772">
        <ele>541.114</ele>
        <time>2013-01-19T14:01:51Z</time>
      </trkpt>
      <trkpt lat="44.32994" lon="2.49769">
        <ele>543.214</ele>
        <time>2013-01-19T14:01:54Z</time>
      </trkpt>
      <trkpt lat="44.33001" lon="2.49766">
        <ele>545.344</ele>
        <time>2013-01-19T14:02:01Z</time>
      </trkpt>
      <trkpt lat="44.33003" lon="2.49765">
        <ele>544.074</ele>
        <time>2013-01-19T14:02:02Z</time>
      </trkpt>
      <trkpt lat="44.33012" lon="2.49756">
        <ele>548.805</ele>
        <time>2013-01-19T14:02:08Z</time>
      </trkpt>
      <trkpt lat="44.33014" lon="2.49753">
        <ele>549.435</ele>
        <time>2013-01-19T14:02:10Z</time>
      </trkpt>
      <trkpt lat="44.33026" lon="2.49753">
        <ele>551.694</ele>
        <time>2013-01-19T14:02:16Z</time>
      </trkpt>
      <trkpt lat="44.33036" lon="2.49752">
        <ele>552.033</ele>
        <time>2013-01-19T14:02:22Z</time>
      </trkpt>
      <trkpt lat="44.33042" lon="2.4975">
        <ele>551.823</ele>
        <time>2013-01-19T14:02:26Z</time>
      </trkpt>
      <trkpt lat="44.33043" lon="2.4975">
        <ele>551.563</ele>
        <time>2013-01-19T14:02:27Z</time>
      </trkpt>
      <trkpt lat="44.33052" lon="2.49745">
        <ele>550.823</ele>
        <time>2013-01-19T14:02:33Z</time>
      </trkpt>
      <trkpt lat="44.33066" lon="2.49743">
        <ele>551.403</ele>
        <time>2013-01-19T14:02:39Z</time>
      </trkpt>
      <trkpt lat="44.33079" lon="2.4974">
        <ele>553.103</ele>
        <time>2013-01-19T14:02:45Z</time>
      </trkpt>
      <trkpt lat="44.33081" lon="2.49739">
        <ele>553.333</ele>
        <time>2013-01-19T14:02:46Z</time>
      </trkpt>
      <trkpt lat="44.3309" lon="2.49732">
        <ele>551.223</ele>
        <time>2013-01-19T14:02:53Z</time>
      </trkpt>
      <trkpt lat="44.33098" lon="2.49729">
        <ele>550.843</ele>
        <time>2013-01-19T14:02:58Z</time>
      </trkpt>
      <trkpt lat="44.33108" lon="2.49726">
        <ele>549.753</ele>
        <time>2013-01-19T14:03:04Z</time>
      </trkpt>
      <trkpt lat="44.33113" lon="2.49729">
        <ele>550.784</ele>
        <time>2013-01-19T14:03:09Z</time>
      </trkpt>
      <trkpt lat="44.33118" lon="2.4973">
        <ele>549.943</ele>
        <time>2013-01-19T14:03:15Z</time>
      </trkpt>
      <trkpt lat="44.33118" lon="2.49729">
        <ele>549.363</ele>
        <time>2013-01-19T14:03:16Z</time>
      </trkpt>
      <trkpt lat="44.33124" lon="2.49723">
        <ele>548.783</ele>
        <time>2013-01-19T14:03:21Z</time>
      </trkpt>
      <trkpt lat="44.33134" lon="2.49715">
        <ele>551.124</ele>
        <time>2013-01-19T14:03:27Z</time>
      </trkpt>
      <trkpt lat="44.33143" lon="2.49704">
        <ele>553.254</ele>
        <time>2013-01-19T14:03:32Z</time>
      </trkpt>
      <trkpt lat="44.33145" lon="2.49702">
        <ele>553.584</ele>
        <time>2013-01-19T14:03:33Z</time>
      </trkpt>
      <trkpt lat="44.33152" lon="2.4969">
        <ele>555.975</ele>
        <time>2013-01-19T14:03:38Z</time>
      </trkpt>
      <trkpt lat="44.33158" lon="2.49681">
        <ele>556.394</ele>
        <time>2013-01-19T14:03:42Z</time>
      </trkpt>
      <trkpt lat="44.3317" lon="2.49669">
        <ele>556.863</ele>
        <time>2013-01-19T14:03:48Z</time>
      </trkpt>
      <trkpt lat="44.33218" lon="2.49704">
        <ele>554.903</ele>
        <time>2013-01-19T14:03:54Z</time>
      </trkpt>
      <trkpt lat="44.33224" lon="2.49693">
        <ele>554.353</ele>
        <time>2013-01-19T14:03:58Z</time>
      </trkpt>
      <trkpt lat="44.33226" lon="2.4969">
        <ele>553.223</ele>
        <time>2013-01-19T14:04:02Z</time>
      </trkpt>
      <trkpt lat="44.33232" lon="2.49684">
        <ele>553.794</ele>
        <time>2013-01-19T14:04:06Z</time>
      </trkpt>
      <trkpt lat="44.33237" lon="2.49679">
        <ele>554.455</ele>
        <time>2013-01-19T14:04:09Z</time>
      </trkpt>
      <trkpt lat="44.33241" lon="2.49675">
        <ele>556.485</ele>
        <time>2013-01-19T14:04:15Z</time>
      </trkpt>
      <trkpt lat="44.33243" lon="2.49673">
        <ele>557.315</ele>
        <time>2013-01-19T14:04:17Z</time>
      </trkpt>
      <trkpt lat="44.33251" lon="2.49665">
        <ele>559.045</ele>
        <time>2013-01-19T14:04:24Z</time>
      </trkpt>
      <trkpt lat="44.33254" lon="2.49662">
        <ele>559.515</ele>
        <time>2013-01-19T14:04:27Z</time>
      </trkpt>
      <trkpt lat="44.3326" lon="2.49656">
        <ele>558.984</ele>
        <time>2013-01-19T14:04:33Z</time>
      </trkpt>
      <trkpt lat="44.33263" lon="2.49654">
        <ele>559.984</ele>
        <time>2013-01-19T14:04:39Z</time>
      </trkpt>
      <trkpt lat="44.3327" lon="2.4965">
        <ele>559.414</ele>
        <time>2013-01-19T14:04:46Z</time>
      </trkpt>
      <trkpt lat="44.33274" lon="2.49648">
        <ele>561.185</ele>
        <time>2013-01-19T14:04:50Z</time>
      </trkpt>
      <trkpt lat="44.33279" lon="2.49646">
        <ele>560.424</ele>
        <time>2013-01-19T14:04:55Z</time>
      </trkpt>
      <trkpt lat="44.33281" lon="2.49645">
        <ele>560.604</ele>
        <time>2013-01-19T14:04:57Z</time>
      </trkpt>
      <trkpt lat="44.33289" lon="2.4964">
        <ele>563.515</ele>
        <time>2013-01-19T14:05:05Z</time>
      </trkpt>
      <trkpt lat="44.33295" lon="2.49638">
        <ele>562.524</ele>
        <time>2013-01-19T14:05:11Z</time>
      </trkpt>
      <trkpt lat="44.33297" lon="2.49638">
        <ele>563.185</ele>
        <time>2013-01-19T14:05:13Z</time>
      </trkpt>
      <trkpt lat="44.33304" lon="2.49636">
        <ele>566.726</ele>
        <time>2013-01-19T14:05:20Z</time>
      </trkpt>
      <trkpt lat="44.3331" lon="2.49635">
        <ele>567.035</ele>
        <time>2013-01-19T14:05:27Z</time>
      </trkpt>
      <trkpt lat="44.33314" lon="2.49634">
        <ele>566.765</ele>
        <time>2013-01-19T14:05:33Z</time>
      </trkpt>
      <trkpt lat="44.33318" lon="2.49634">
        <ele>567.544</ele>
        <time>2013-01-19T14:05:35Z</time>
      </trkpt>
      <trkpt lat="44.3332" lon="2.49634">
        <ele>568.235</ele>
        <time>2013-01-19T14:05:38Z</time>
      </trkpt>
      <trkpt lat="44.33324" lon="2.49633">
        <ele>568.425</ele>
        <time>2013-01-19T14:05:43Z</time>
      </trkpt>
      <trkpt lat="44.33324" lon="2.49633">
        <ele>568.295</ele>
        <time>2013-01-19T14:05:44Z</time>
      </trkpt>
      <trkpt lat="44.33322" lon="2.49634">
        <ele>567.774</ele>
        <time>2013-01-19T14:05:48Z</time>
      </trkpt>
      <trkpt lat="44.33316" lon="2.496">
        <ele>567.345</ele>
        <time>2013-01-19T14:05:58Z</time>
      </trkpt>
      <trkpt lat="44.33315" lon="2.49603">
        <ele>568.906</ele>
        <time>2013-01-19T14:06:00Z</time>
      </trkpt>
      <trkpt lat="44.33319" lon="2.49634">
        <ele>570.185</ele>
        <time>2013-01-19T14:06:03Z</time>
      </trkpt>
      <trkpt lat="44.33319" lon="2.49634">
        <ele>571.295</ele>
        <time>2013-01-19T14:06:09Z</time>
      </trkpt>
      <trkpt lat="44.33319" lon="2.49634">
        <ele>573.116</ele>
        <time>2013-01-19T14:06:15Z</time>
      </trkpt>
      <trkpt lat="44.33315" lon="2.49634">
        <ele>575.688</ele>
        <time>2013-01-19T14:06:19Z</time>
      </trkpt>
      <trkpt lat="44.33314" lon="2.49634">
        <ele>578.318</ele>
        <time>2013-01-19T14:06:23Z</time>
      </trkpt>
      <trkpt lat="44.33314" lon="2.49634">
        <ele>579.122</ele>
        <time>2013-01-19T14:06:24Z</time>
      </trkpt>
      <trkpt lat="44.33313" lon="2.49634">
        <ele>579.565</ele>
        <time>2013-01-19T14:06:31Z</time>
      </trkpt>
      <trkpt lat="44.33313" lon="2.49634">
        <ele>579.465</ele>
        <time>2013-01-19T14:06:33Z</time>
      </trkpt>
      <trkpt lat="44.33313" lon="2.49634">
        <ele>578.964</ele>
        <time>2013-01-19T14:06:38Z</time>
      </trkpt>
      <trkpt lat="44.33313" lon="2.49634">
        <ele>577.804</ele>
        <time>2013-01-19T14:06:51Z</time>
      </trkpt>
      <trkpt lat="44.33313" lon="2.49634">
        <ele>576.55</ele>
        <time>2013-01-19T14:06:54Z</time>
      </trkpt>
      <trkpt lat="44.33324" lon="2.49633">
        <ele>575.094</ele>
        <time>2013-01-19T14:07:03Z</time>
      </trkpt>
      <trkpt lat="44.33327" lon="2.49633">
        <ele>574.614</ele>
        <time>2013-01-19T14:07:07Z</time>
      </trkpt>
      <trkpt lat="44.33335" lon="2.49632">
        <ele>575.184</ele>
        <time>2013-01-19T14:07:15Z</time>
      </trkpt>
      <trkpt lat="44.33347" lon="2.49633">
        <ele>576.254</ele>
        <time>2013-01-19T14:07:22Z</time>
      </trkpt>
      <trkpt lat="44.33354" lon="2.49634">
        <ele>578.253</ele>
        <time>2013-01-19T14:07:27Z</time>
      </trkpt>
      <trkpt lat="44.33353" lon="2.49668">
        <ele>578.743</ele>
        <time>2013-01-19T14:07:28Z</time>
      </trkpt>
      <trkpt lat="44.33362" lon="2.49636">
        <ele>579.054</ele>
        <time>2013-01-19T14:07:33Z</time>
      </trkpt>
      <trkpt lat="44.33367" lon="2.49636">
        <ele>579.394</ele>
        <time>2013-01-19T14:07:35Z</time>
      </trkpt>
      <trkpt lat="44.33372" lon="2.49637">
        <ele>580.004</ele>
        <time>2013-01-19T14:07:37Z</time>
      </trkpt>
      <trkpt lat="44.33378" lon="2.49638">
        <ele>580.925</ele>
        <time>2013-01-19T14:07:40Z</time>
      </trkpt>
      <trkpt lat="44.33389" lon="2.49639">
        <ele>581.054</ele>
        <time>2013-01-19T14:07:45Z</time>
      </trkpt>
      <trkpt lat="44.33402" lon="2.49641">
        <ele>582.495</ele>
        <time>2013-01-19T14:07:50Z</time>
      </trkpt>
      <trkpt lat="44.33415" lon="2.49643">
        <ele>582.554</ele>
        <time>2013-01-19T14:07:55Z</time>
      </trkpt>
      <trkpt lat="44.33428" lon="2.49643">
        <ele>582.634</ele>
        <time>2013-01-19T14:08:00Z</time>
      </trkpt>
      <trkpt lat="44.33436" lon="2.49643">
        <ele>581.884</ele>
        <time>2013-01-19T14:08:06Z</time>
      </trkpt>
      <trkpt lat="44.33436" lon="2.49643">
        <ele>581.914</ele>
        <time>2013-01-19T14:08:11Z</time>
      </trkpt>
      <trkpt lat="44.33465" lon="2.49649">
        <ele>583.094</ele>
        <time>2013-01-19T14:08:17Z</time>
      </trkpt>
      <trkpt lat="44.33467" lon="2.4965">
        <ele>583.274</ele>
        <time>2013-01-19T14:08:18Z</time>
      </trkpt>
      <trkpt lat="44.33478" lon="2.49651">
        <ele>585.305</ele>
        <time>2013-01-19T14:08:23Z</time>
      </trkpt>
      <trkpt lat="44.33481" lon="2.49651">
        <ele>585.675</ele>
        <time>2013-01-19T14:08:25Z</time>
      </trkpt>
      <trkpt lat="44.33489" lon="2.49652">
        <ele>587.335</ele>
        <time>2013-01-19T14:08:31Z</time>
      </trkpt>
      <trkpt lat="44.33497" lon="2.49652">
        <ele>587.985</ele>
        <time>2013-01-19T14:08:37Z</time>
      </trkpt>
      <trkpt lat="44.33499" lon="2.49652">
        <ele>588.195</ele>
        <time>2013-01-19T14:08:38Z</time>
      </trkpt>
      <trkpt lat="44.33506" lon="2.49653">
        <ele>589.086</ele>
        <time>2013-01-19T14:08:44Z</time>
      </trkpt>
      <trkpt lat="44.33514" lon="2.49656">
        <ele>594.636</ele>
        <time>2013-01-19T14:08:48Z</time>
      </trkpt>
      <trkpt lat="44.3352" lon="2.49666">
        <ele>595.986</ele>
        <time>2013-01-19T14:08:55Z</time>
      </trkpt>
      <trkpt lat="44.33519" lon="2.4967">
        <ele>597.107</ele>
        <time>2013-01-19T14:09:00Z</time>
      </trkpt>
      <trkpt lat="44.33519" lon="2.4967">
        <ele>596.215</ele>
        <time>2013-01-19T14:09:24Z</time>
      </trkpt>
      <trkpt lat="44.33519" lon="2.4967">
        <ele>597.175</ele>
        <time>2013-01-19T14:09:26Z</time>
      </trkpt>
      <trkpt lat="44.33516" lon="2.49687">
        <ele>599.605</ele>
        <time>2013-01-19T14:09:29Z</time>
      </trkpt>
      <trkpt lat="44.33516" lon="2.4969">
        <ele>600.796</ele>
        <time>2013-01-19T14:09:31Z</time>
      </trkpt>
      <trkpt lat="44.33516" lon="2.49694">
        <ele>603.636</ele>
        <time>2013-01-19T14:09:34Z</time>
      </trkpt>
      <trkpt lat="44.33516" lon="2.497">
        <ele>605.667</ele>
        <time>2013-01-19T14:09:37Z</time>
      </trkpt>
      <trkpt lat="44.33516" lon="2.4971">
        <ele>607.507</ele>
        <time>2013-01-19T14:09:43Z</time>
      </trkpt>
      <trkpt lat="44.33516" lon="2.49714">
        <ele>608.866</ele>
        <time>2013-01-19T14:09:48Z</time>
      </trkpt>
      <trkpt lat="44.33471" lon="2.49722">
        <ele>611.297</ele>
        <time>2013-01-19T14:09:54Z</time>
      </trkpt>
      <trkpt lat="44.33471" lon="2.49722">
        <ele>611.146</ele>
        <time>2013-01-19T14:09:56Z</time>
      </trkpt>
      <trkpt lat="44.33471" lon="2.49722">
        <ele>610.846</ele>
        <time>2013-01-19T14:09:59Z</time>
      </trkpt>
      <trkpt lat="44.33471" lon="2.49722">
        <ele>611.727</ele>
        <time>2013-01-19T14:10:04Z</time>
      </trkpt>
      <trkpt lat="44.33471" lon="2.49722">
        <ele>613.567</ele>
        <time>2013-01-19T14:10:08Z</time>
      </trkpt>
      <trkpt lat="44.33471" lon="2.49722">
        <ele>616.067</ele>
        <time>2013-01-19T14:10:14Z</time>
      </trkpt>
      <trkpt lat="44.33471" lon="2.49722">
        <ele>617.396</ele>
        <time>2013-01-19T14:10:21Z</time>
      </trkpt>
      <trkpt lat="44.33471" lon="2.49722">
        <ele>617.466</ele>
        <time>2013-01-19T14:10:22Z</time>
      </trkpt>
      <trkpt lat="44.33467" lon="2.49725">
        <ele>617.996</ele>
        <time>2013-01-19T14:10:27Z</time>
      </trkpt>
      <trkpt lat="44.33465" lon="2.49726">
        <ele>617.615</ele>
        <time>2013-01-19T14:10:29Z</time>
      </trkpt>
      <trkpt lat="44.33458" lon="2.4973">
        <ele>616.874</ele>
        <time>2013-01-19T14:10:36Z</time>
      </trkpt>
      <trkpt lat="44.33451" lon="2.49735">
        <ele>618.224</ele>
        <time>2013-01-19T14:10:42Z</time>
      </trkpt>
      <trkpt lat="44.33443" lon="2.4974">
        <ele>618.495</ele>
        <time>2013-01-19T14:10:50Z</time>
      </trkpt>
      <trkpt lat="44.33434" lon="2.49747">
        <ele>622.156</ele>
        <time>2013-01-19T14:10:58Z</time>
      </trkpt>
      <trkpt lat="44.33426" lon="2.49754">
        <ele>625.465</ele>
        <time>2013-01-19T14:11:06Z</time>
      </trkpt>
      <trkpt lat="44.3342" lon="2.49759">
        <ele>625.786</ele>
        <time>2013-01-19T14:11:12Z</time>
      </trkpt>
      <trkpt lat="44.33414" lon="2.49764">
        <ele>626.856</ele>
        <time>2013-01-19T14:11:17Z</time>
      </trkpt>
      <trkpt lat="44.33405" lon="2.49771">
        <ele>628.616</ele>
        <time>2013-01-19T14:11:25Z</time>
      </trkpt>
      <trkpt lat="44.33399" lon="2.49776">
        <ele>630.366</ele>
        <time>2013-01-19T14:11:31Z</time>
      </trkpt>
      <trkpt lat="44.33392" lon="2.49784">
        <ele>633.975</ele>
        <time>2013-01-19T14:11:39Z</time>
      </trkpt>
      <trkpt lat="44.33382" lon="2.49795">
        <ele>637.515</ele>
        <time>2013-01-19T14:11:48Z</time>
      </trkpt>
      <trkpt lat="44.33374" lon="2.49807">
        <ele>642.396</ele>
        <time>2013-01-19T14:11:56Z</time>
      </trkpt>
      <trkpt lat="44.33373" lon="2.49809">
        <ele>643.606</ele>
        <time>2013-01-19T14:11:58Z</time>
      </trkpt>
      <trkpt lat="44.33368" lon="2.49817">
        <ele>642.126</ele>
        <time>2013-01-19T14:12:05Z</time>
      </trkpt>
      <trkpt lat="44.33367" lon="2.49819">
        <ele>642.336</ele>
        <time>2013-01-19T14:12:07Z</time>
      </trkpt>
      <trkpt lat="44.33358" lon="2.49838">
        <ele>641.515</ele>
        <time>2013-01-19T14:12:18Z</time>
      </trkpt>
      <trkpt lat="44.33355" lon="2.49848">
        <ele>641.655</ele>
        <time>2013-01-19T14:12:24Z</time>
      </trkpt>
      <trkpt lat="44.3335" lon="2.49859">
        <ele>642.475</ele>
        <time>2013-01-19T14:12:30Z</time>
      </trkpt>
      <trkpt lat="44.3334" lon="2.49877">
        <ele>642.305</ele>
        <time>2013-01-19T14:12:41Z</time>
      </trkpt>
      <trkpt lat="44.33334" lon="2.4989">
        <ele>642.055</ele>
        <time>2013-01-19T14:12:48Z</time>
      </trkpt>
      <trkpt lat="44.33329" lon="2.49905">
        <ele>639.145</ele>
        <time>2013-01-19T14:12:57Z</time>
      </trkpt>
      <trkpt lat="44.33323" lon="2.49921">
        <ele>638.315</ele>
        <time>2013-01-19T14:13:06Z</time>
      </trkpt>
      <trkpt lat="44.33319" lon="2.49932">
        <ele>638.115</ele>
        <time>2013-01-19T14:13:10Z</time>
      </trkpt>
      <trkpt lat="44.33314" lon="2.49948">
        <ele>638.485</ele>
        <time>2013-01-19T14:13:15Z</time>
      </trkpt>
      <trkpt lat="44.33311" lon="2.49954">
        <ele>639.216</ele>
        <time>2013-01-19T14:13:17Z</time>
      </trkpt>
      <trkpt lat="44.33307" lon="2.49976">
        <ele>640.435</ele>
        <time>2013-01-19T14:13:23Z</time>
      </trkpt>
      <trkpt lat="44.33299" lon="2.49999">
        <ele>640.875</ele>
        <time>2013-01-19T14:13:29Z</time>
      </trkpt>
      <trkpt lat="44.33294" lon="2.50011">
        <ele>641.936</ele>
        <time>2013-01-19T14:13:34Z</time>
      </trkpt>
      <trkpt lat="44.33285" lon="2.50029">
        <ele>643.256</ele>
        <time>2013-01-19T14:13:39Z</time>
      </trkpt>
      <trkpt lat="44.33281" lon="2.5004">
        <ele>643.606</ele>
        <time>2013-01-19T14:13:42Z</time>
      </trkpt>
      <trkpt lat="44.33274" lon="2.50056">
        <ele>644.516</ele>
        <time>2013-01-19T14:13:47Z</time>
      </trkpt>
      <trkpt lat="44.33266" lon="2.50076">
        <ele>644.775</ele>
        <time>2013-01-19T14:13:53Z</time>
      </trkpt>
      <trkpt lat="44.33261" lon="2.50091">
        <ele>645.266</ele>
        <time>2013-01-19T14:13:59Z</time>
      </trkpt>
      <trkpt lat="44.33255" lon="2.50108">
        <ele>645.345</ele>
        <time>2013-01-19T14:14:04Z</time>
      </trkpt>
      <trkpt lat="44.3325" lon="2.50123">
        <ele>645.465</ele>
        <time>2013-01-19T14:14:09Z</time>
      </trkpt>
      <trkpt lat="44.33243" lon="2.50144">
        <ele>645.945</ele>
        <time>2013-01-19T14:14:16Z</time>
      </trkpt>
      <trkpt lat="44.33237" lon="2.50161">
        <ele>646.425</ele>
        <time>2013-01-19T14:14:22Z</time>
      </trkpt>
      <trkpt lat="44.3323" lon="2.50176">
        <ele>646.435</ele>
        <time>2013-01-19T14:14:28Z</time>
      </trkpt>
      <trkpt lat="44.33222" lon="2.50191">
        <ele>645.755</ele>
        <time>2013-01-19T14:14:34Z</time>
      </trkpt>
      <trkpt lat="44.33214" lon="2.50204">
        <ele>644.504</ele>
        <time>2013-01-19T14:14:39Z</time>
      </trkpt>
      <trkpt lat="44.33203" lon="2.50218">
        <ele>645.585</ele>
        <time>2013-01-19T14:14:45Z</time>
      </trkpt>
      <trkpt lat="44.33194" lon="2.5023">
        <ele>645.385</ele>
        <time>2013-01-19T14:14:50Z</time>
      </trkpt>
      <trkpt lat="44.33182" lon="2.50244">
        <ele>645.985</ele>
        <time>2013-01-19T14:14:56Z</time>
      </trkpt>
      <trkpt lat="44.33171" lon="2.50255">
        <ele>647.296</ele>
        <time>2013-01-19T14:15:02Z</time>
      </trkpt>
      <trkpt lat="44.33164" lon="2.50261">
        <ele>647.166</ele>
        <time>2013-01-19T14:15:08Z</time>
      </trkpt>
      <trkpt lat="44.33156" lon="2.50269">
        <ele>647.366</ele>
        <time>2013-01-19T14:15:15Z</time>
      </trkpt>
      <trkpt lat="44.33148" lon="2.50277">
        <ele>647.376</ele>
        <time>2013-01-19T14:15:22Z</time>
      </trkpt>
      <trkpt lat="44.33144" lon="2.50281">
        <ele>647.587</ele>
        <time>2013-01-19T14:15:25Z</time>
      </trkpt>
      <trkpt lat="44.33134" lon="2.5029">
        <ele>649.277</ele>
        <time>2013-01-19T14:15:33Z</time>
      </trkpt>
      <trkpt lat="44.33123" lon="2.50298">
        <ele>648.295</ele>
        <time>2013-01-19T14:15:41Z</time>
      </trkpt>
      <trkpt lat="44.33112" lon="2.50307">
        <ele>651.077</ele>
        <time>2013-01-19T14:15:46Z</time>
      </trkpt>
      <trkpt lat="44.331" lon="2.50318">
        <ele>651.527</ele>
        <time>2013-01-19T14:15:51Z</time>
      </trkpt>
      <trkpt lat="44.33091" lon="2.50325">
        <ele>652.577</ele>
        <time>2013-01-19T14:15:55Z</time>
      </trkpt>
      <trkpt lat="44.33078" lon="2.50338">
        <ele>654.587</ele>
        <time>2013-01-19T14:16:00Z</time>
      </trkpt>
      <trkpt lat="44.33061" lon="2.50348">
        <ele>656.486</ele>
        <time>2013-01-19T14:16:06Z</time>
      </trkpt>
      <trkpt lat="44.33046" lon="2.50358">
        <ele>656.626</ele>
        <time>2013-01-19T14:16:12Z</time>
      </trkpt>
      <trkpt lat="44.33031" lon="2.50367">
        <ele>657.216</ele>
        <time>2013-01-19T14:16:18Z</time>
      </trkpt>
      <trkpt lat="44.33019" lon="2.50375">
        <ele>656.495</ele>
        <time>2013-01-19T14:16:23Z</time>
      </trkpt>
      <trkpt lat="44.33009" lon="2.50381">
        <ele>655.685</ele>
        <time>2013-01-19T14:16:27Z</time>
      </trkpt>
      <trkpt lat="44.32992" lon="2.50392">
        <ele>653.526</ele>
        <time>2013-01-19T14:16:34Z</time>
      </trkpt>
      <trkpt lat="44.32989" lon="2.50395">
        <ele>649.834</ele>
        <time>2013-01-19T14:16:38Z</time>
      </trkpt>
      <trkpt lat="44.32982" lon="2.50399">
        <ele>648.744</ele>
        <time>2013-01-19T14:16:42Z</time>
      </trkpt>
      <trkpt lat="44.32973" lon="2.50405">
        <ele>648.625</ele>
        <time>2013-01-19T14:16:46Z</time>
      </trkpt>
      <trkpt lat="44.32961" lon="2.50413">
        <ele>648.975</ele>
        <time>2013-01-19T14:16:51Z</time>
      </trkpt>
      <trkpt lat="44.32951" lon="2.50419">
        <ele>649.215</ele>
        <time>2013-01-19T14:16:55Z</time>
      </trkpt>
      <trkpt lat="44.32936" lon="2.50429">
        <ele>649.756</ele>
        <time>2013-01-19T14:17:01Z</time>
      </trkpt>
      <trkpt lat="44.32924" lon="2.50437">
        <ele>650.456</ele>
        <time>2013-01-19T14:17:06Z</time>
      </trkpt>
      <trkpt lat="44.32914" lon="2.50444">
        <ele>650.565</ele>
        <time>2013-01-19T14:17:10Z</time>
      </trkpt>
      <trkpt lat="44.32904" lon="2.50452">
        <ele>650.796</ele>
        <time>2013-01-19T14:17:15Z</time>
      </trkpt>
      <trkpt lat="44.32893" lon="2.50461">
        <ele>650.295</ele>
        <time>2013-01-19T14:17:20Z</time>
      </trkpt>
      <trkpt lat="44.32891" lon="2.50462">
        <ele>649.685</ele>
        <time>2013-01-19T14:17:22Z</time>
      </trkpt>
      <trkpt lat="44.32881" lon="2.5047">
        <ele>649.496</ele>
        <time>2013-01-19T14:17:30Z</time>
      </trkpt>
      <trkpt lat="44.32875" lon="2.50475">
        <ele>649.755</ele>
        <time>2013-01-19T14:17:35Z</time>
      </trkpt>
      <trkpt lat="44.32866" lon="2.50483">
        <ele>650.335</ele>
        <time>2013-01-19T14:17:42Z</time>
      </trkpt>
      <trkpt lat="44.32854" lon="2.50493">
        <ele>650.745</ele>
        <time>2013-01-19T14:17:48Z</time>
      </trkpt>
      <trkpt lat="44.32841" lon="2.50505">
        <ele>651.745</ele>
        <time>2013-01-19T14:17:54Z</time>
      </trkpt>
      <trkpt lat="44.32828" lon="2.50519">
        <ele>651.854</ele>
        <time>2013-01-19T14:18:00Z</time>
      </trkpt>
      <trkpt lat="44.32813" lon="2.50532">
        <ele>652.345</ele>
        <time>2013-01-19T14:18:07Z</time>
      </trkpt>
      <trkpt lat="44.32799" lon="2.50544">
        <ele>651.754</ele>
        <time>2013-01-19T14:18:14Z</time>
      </trkpt>
      <trkpt lat="44.32788" lon="2.50549">
        <ele>652.205</ele>
        <time>2013-01-19T14:18:19Z</time>
      </trkpt>
      <trkpt lat="44.32777" lon="2.50555">
        <ele>653.516</ele>
        <time>2013-01-19T14:18:24Z</time>
      </trkpt>
      <trkpt lat="44.32765" lon="2.5056">
        <ele>654.386</ele>
        <time>2013-01-19T14:18:29Z</time>
      </trkpt>
      <trkpt lat="44.32762" lon="2.50561">
        <ele>655.085</ele>
        <time>2013-01-19T14:18:34Z</time>
      </trkpt>
      <trkpt lat="44.32762" lon="2.50561">
        <ele>654.954</ele>
        <time>2013-01-19T14:18:40Z</time>
      </trkpt>
      <trkpt lat="44.32743" lon="2.50574">
        <ele>655.275</ele>
        <time>2013-01-19T14:18:43Z</time>
      </trkpt>
      <trkpt lat="44.32733" lon="2.50581">
        <ele>654.273</ele>
        <time>2013-01-19T14:18:51Z</time>
      </trkpt>
      <trkpt lat="44.32729" lon="2.50583">
        <ele>652.252</ele>
        <time>2013-01-19T14:18:55Z</time>
      </trkpt>
      <trkpt lat="44.32717" lon="2.50591">
        <ele>652.594</ele>
        <time>2013-01-19T14:19:04Z</time>
      </trkpt>
      <trkpt lat="44.32704" lon="2.506">
        <ele>653.634</ele>
        <time>2013-01-19T14:19:13Z</time>
      </trkpt>
      <trkpt lat="44.32692" lon="2.50608">
        <ele>655.165</ele>
        <time>2013-01-19T14:19:22Z</time>
      </trkpt>
      <trkpt lat="44.32684" lon="2.50613">
        <ele>654.854</ele>
        <time>2013-01-19T14:19:28Z</time>
      </trkpt>
      <trkpt lat="44.32675" lon="2.50621">
        <ele>655.154</ele>
        <time>2013-01-19T14:19:35Z</time>
      </trkpt>
      <trkpt lat="44.32667" lon="2.5063">
        <ele>655.825</ele>
        <time>2013-01-19T14:19:41Z</time>
      </trkpt>
      <trkpt lat="44.32662" lon="2.50635">
        <ele>656.124</ele>
        <time>2013-01-19T14:19:45Z</time>
      </trkpt>
      <trkpt lat="44.3265" lon="2.50651">
        <ele>655.984</ele>
        <time>2013-01-19T14:19:52Z</time>
      </trkpt>
      <trkpt lat="44.3264" lon="2.50663">
        <ele>655.964</ele>
        <time>2013-01-19T14:19:57Z</time>
      </trkpt>
      <trkpt lat="44.32627" lon="2.50678">
        <ele>655.994</ele>
        <time>2013-01-19T14:20:03Z</time>
      </trkpt>
      <trkpt lat="44.32613" lon="2.50695">
        <ele>655.614</ele>
        <time>2013-01-19T14:20:10Z</time>
      </trkpt>
      <trkpt lat="44.32604" lon="2.50703">
        <ele>655.333</ele>
        <time>2013-01-19T14:20:16Z</time>
      </trkpt>
      <trkpt lat="44.32603" lon="2.50703">
        <ele>655.293</ele>
        <time>2013-01-19T14:20:17Z</time>
      </trkpt>
      <trkpt lat="44.3259" lon="2.5073">
        <ele>654.603</ele>
        <time>2013-01-19T14:20:22Z</time>
      </trkpt>
      <trkpt lat="44.3258" lon="2.50742">
        <ele>654.864</ele>
        <time>2013-01-19T14:20:26Z</time>
      </trkpt>
      <trkpt lat="44.32573" lon="2.5075">
        <ele>654.734</ele>
        <time>2013-01-19T14:20:29Z</time>
      </trkpt>
      <trkpt lat="44.32558" lon="2.5077">
        <ele>654.114</ele>
        <time>2013-01-19T14:20:35Z</time>
      </trkpt>
      <trkpt lat="44.32547" lon="2.50792">
        <ele>653.755</ele>
        <time>2013-01-19T14:20:40Z</time>
      </trkpt>
      <trkpt lat="44.3254" lon="2.50809">
        <ele>653.595</ele>
        <time>2013-01-19T14:20:44Z</time>
      </trkpt>
      <trkpt lat="44.32535" lon="2.50821">
        <ele>652.264</ele>
        <time>2013-01-19T14:20:48Z</time>
      </trkpt>
      <trkpt lat="44.32523" lon="2.50844">
        <ele>650.444</ele>
        <time>2013-01-19T14:20:54Z</time>
      </trkpt>
      <trkpt lat="44.32516" lon="2.5086">
        <ele>648.553</ele>
        <time>2013-01-19T14:20:59Z</time>
      </trkpt>
      <trkpt lat="44.32509" lon="2.50873">
        <ele>647.543</ele>
        <time>2013-01-19T14:21:03Z</time>
      </trkpt>
      <trkpt lat="44.32514" lon="2.50906">
        <ele>647.144</ele>
        <time>2013-01-19T14:21:08Z</time>
      </trkpt>
      <trkpt lat="44.32502" lon="2.50915">
        <ele>646.303</ele>
        <time>2013-01-19T14:21:13Z</time>
      </trkpt>
      <trkpt lat="44.32493" lon="2.50921">
        <ele>645.933</ele>
        <time>2013-01-19T14:21:18Z</time>
      </trkpt>
      <trkpt lat="44.32491" lon="2.50923">
        <ele>646.054</ele>
        <time>2013-01-19T14:21:19Z</time>
      </trkpt>
      <trkpt lat="44.32492" lon="2.50962">
        <ele>644.773</ele>
        <time>2013-01-19T14:21:24Z</time>
      </trkpt>
      <trkpt lat="44.32495" lon="2.50965">
        <ele>644.512</ele>
        <time>2013-01-19T14:21:25Z</time>
      </trkpt>
      <trkpt lat="44.32505" lon="2.50975">
        <ele>642.632</ele>
        <time>2013-01-19T14:21:30Z</time>
      </trkpt>
      <trkpt lat="44.32516" lon="2.50987">
        <ele>639.101</ele>
        <time>2013-01-19T14:21:35Z</time>
      </trkpt>
      <trkpt lat="44.32525" lon="2.50995">
        <ele>637.142</ele>
        <time>2013-01-19T14:21:39Z</time>
      </trkpt>
      <trkpt lat="44.32536" lon="2.51003">
        <ele>634.731</ele>
        <time>2013-01-19T14:21:44Z</time>
      </trkpt>
      <trkpt lat="44.32549" lon="2.51012">
        <ele>631.461</ele>
        <time>2013-01-19T14:21:49Z</time>
      </trkpt>
      <trkpt lat="44.32561" lon="2.51021">
        <ele>628.422</ele>
        <time>2013-01-19T14:21:54Z</time>
      </trkpt>
      <trkpt lat="44.32565" lon="2.51025">
        <ele>624.571</ele>
        <time>2013-01-19T14:21:59Z</time>
      </trkpt>
      <trkpt lat="44.32585" lon="2.5104">
        <ele>622.831</ele>
        <time>2013-01-19T14:22:03Z</time>
      </trkpt>
      <trkpt lat="44.32601" lon="2.51053">
        <ele>622.082</ele>
        <time>2013-01-19T14:22:08Z</time>
      </trkpt>
      <trkpt lat="44.32606" lon="2.5106">
        <ele>620.431</ele>
        <time>2013-01-19T14:22:10Z</time>
      </trkpt>
      <trkpt lat="44.32614" lon="2.51074">
        <ele>616.028</ele>
        <time>2013-01-19T14:22:14Z</time>
      </trkpt>
      <trkpt lat="44.32618" lon="2.51085">
        <ele>615.661</ele>
        <time>2013-01-19T14:22:17Z</time>
      </trkpt>
      <trkpt lat="44.32622" lon="2.51102">
        <ele>615.792</ele>
        <time>2013-01-19T14:22:21Z</time>
      </trkpt>
      <trkpt lat="44.32627" lon="2.51115">
        <ele>617.294</ele>
        <time>2013-01-19T14:22:25Z</time>
      </trkpt>
      <trkpt lat="44.32634" lon="2.51135">
        <ele>619.454</ele>
        <time>2013-01-19T14:22:30Z</time>
      </trkpt>
      <trkpt lat="44.32635" lon="2.51139">
        <ele>620.294</ele>
        <time>2013-01-19T14:22:31Z</time>
      </trkpt>
      <trkpt lat="44.3264" lon="2.51161">
        <ele>621.264</ele>
        <time>2013-01-19T14:22:37Z</time>
      </trkpt>
      <trkpt lat="44.32644" lon="2.51177">
        <ele>622.905</ele>
        <time>2013-01-19T14:22:42Z</time>
      </trkpt>
      <trkpt lat="44.32649" lon="2.51193">
        <ele>625.486</ele>
        <time>2013-01-19T14:22:46Z</time>
      </trkpt>
      <trkpt lat="44.32653" lon="2.51208">
        <ele>626.636</ele>
        <time>2013-01-19T14:22:50Z</time>
      </trkpt>
      <trkpt lat="44.32658" lon="2.51228">
        <ele>626.975</ele>
        <time>2013-01-19T14:22:55Z</time>
      </trkpt>
      <trkpt lat="44.32666" lon="2.5125">
        <ele>628.676</ele>
        <time>2013-01-19T14:23:01Z</time>
      </trkpt>
      <trkpt lat="44.32675" lon="2.51271">
        <ele>628.845</ele>
        <time>2013-01-19T14:23:07Z</time>
      </trkpt>
      <trkpt lat="44.32681" lon="2.51285">
        <ele>629.465</ele>
        <time>2013-01-19T14:23:11Z</time>
      </trkpt>
      <trkpt lat="44.32688" lon="2.51301">
        <ele>630.826</ele>
        <time>2013-01-19T14:23:16Z</time>
      </trkpt>
      <trkpt lat="44.32692" lon="2.51312">
        <ele>631.555</ele>
        <time>2013-01-19T14:23:22Z</time>
      </trkpt>
      <trkpt lat="44.32698" lon="2.51326">
        <ele>632.015</ele>
        <time>2013-01-19T14:23:31Z</time>
      </trkpt>
      <trkpt lat="44.32701" lon="2.51334">
        <ele>632.896</ele>
        <time>2013-01-19T14:23:37Z</time>
      </trkpt>
      <trkpt lat="44.32708" lon="2.5134">
        <ele>632.685</ele>
        <time>2013-01-19T14:23:42Z</time>
      </trkpt>
      <trkpt lat="44.32717" lon="2.51347">
        <ele>630.874</ele>
        <time>2013-01-19T14:23:47Z</time>
      </trkpt>
      <trkpt lat="44.32729" lon="2.51348">
        <ele>629.354</ele>
        <time>2013-01-19T14:23:52Z</time>
      </trkpt>
      <trkpt lat="44.32748" lon="2.51345">
        <ele>628.866</ele>
        <time>2013-01-19T14:23:59Z</time>
      </trkpt>
      <trkpt lat="44.32753" lon="2.51345">
        <ele>628.946</ele>
        <time>2013-01-19T14:24:01Z</time>
      </trkpt>
      <trkpt lat="44.32764" lon="2.51343">
        <ele>629.226</ele>
        <time>2013-01-19T14:24:05Z</time>
      </trkpt>
      <trkpt lat="44.32781" lon="2.51345">
        <ele>629.255</ele>
        <time>2013-01-19T14:24:11Z</time>
      </trkpt>
      <trkpt lat="44.32794" lon="2.51351">
        <ele>629.225</ele>
        <time>2013-01-19T14:24:15Z</time>
      </trkpt>
      <trkpt lat="44.3281" lon="2.51359">
        <ele>629.696</ele>
        <time>2013-01-19T14:24:21Z</time>
      </trkpt>
      <trkpt lat="44.32823" lon="2.51366">
        <ele>631.267</ele>
        <time>2013-01-19T14:24:26Z</time>
      </trkpt>
      <trkpt lat="44.32838" lon="2.51373">
        <ele>632.527</ele>
        <time>2013-01-19T14:24:31Z</time>
      </trkpt>
      <trkpt lat="44.32855" lon="2.51384">
        <ele>633.446</ele>
        <time>2013-01-19T14:24:37Z</time>
      </trkpt>
      <trkpt lat="44.32869" lon="2.51391">
        <ele>633.125</ele>
        <time>2013-01-19T14:24:42Z</time>
      </trkpt>
      <trkpt lat="44.32884" lon="2.51398">
        <ele>632.486</ele>
        <time>2013-01-19T14:24:47Z</time>
      </trkpt>
      <trkpt lat="44.32893" lon="2.51402">
        <ele>631.445</ele>
        <time>2013-01-19T14:24:52Z</time>
      </trkpt>
      <trkpt lat="44.32893" lon="2.51402">
        <ele>630.085</ele>
        <time>2013-01-19T14:24:56Z</time>
      </trkpt>
      <trkpt lat="44.32923" lon="2.51411">
        <ele>629.195</ele>
        <time>2013-01-19T14:25:01Z</time>
      </trkpt>
      <trkpt lat="44.32934" lon="2.51414">
        <ele>629.126</ele>
        <time>2013-01-19T14:25:05Z</time>
      </trkpt>
      <trkpt lat="44.32953" lon="2.51419">
        <ele>629.156</ele>
        <time>2013-01-19T14:25:11Z</time>
      </trkpt>
      <trkpt lat="44.32964" lon="2.51422">
        <ele>629.276</ele>
        <time>2013-01-19T14:25:15Z</time>
      </trkpt>
      <trkpt lat="44.32979" lon="2.51426">
        <ele>629.176</ele>
        <time>2013-01-19T14:25:20Z</time>
      </trkpt>
      <trkpt lat="44.32987" lon="2.51429">
        <ele>629.376</ele>
        <time>2013-01-19T14:25:23Z</time>
      </trkpt>
      <trkpt lat="44.32999" lon="2.51434">
        <ele>629.936</ele>
        <time>2013-01-19T14:25:31Z</time>
      </trkpt>
      <trkpt lat="44.3301" lon="2.51439">
        <ele>629.936</ele>
        <time>2013-01-19T14:25:39Z</time>
      </trkpt>
      <trkpt lat="44.33016" lon="2.51441">
        <ele>630.917</ele>
        <time>2013-01-19T14:25:43Z</time>
      </trkpt>
      <trkpt lat="44.33024" lon="2.51449">
        <ele>630.836</ele>
        <time>2013-01-19T14:25:50Z</time>
      </trkpt>
      <trkpt lat="44.33036" lon="2.51459">
        <ele>632.067</ele>
        <time>2013-01-19T14:25:59Z</time>
      </trkpt>
      <trkpt lat="44.33043" lon="2.51466">
        <ele>631.426</ele>
        <time>2013-01-19T14:26:05Z</time>
      </trkpt>
      <trkpt lat="44.33049" lon="2.51471">
        <ele>631.467</ele>
        <time>2013-01-19T14:26:12Z</time>
      </trkpt>
      <trkpt lat="44.33055" lon="2.51477">
        <ele>630.877</ele>
        <time>2013-01-19T14:26:17Z</time>
      </trkpt>
      <trkpt lat="44.33067" lon="2.51487">
        <ele>631.217</ele>
        <time>2013-01-19T14:26:23Z</time>
      </trkpt>
      <trkpt lat="44.33079" lon="2.51498">
        <ele>630.616</ele>
        <time>2013-01-19T14:26:28Z</time>
      </trkpt>
      <trkpt lat="44.33094" lon="2.51499">
        <ele>628.294</ele>
        <time>2013-01-19T14:26:33Z</time>
      </trkpt>
      <trkpt lat="44.33111" lon="2.51495">
        <ele>626.635</ele>
        <time>2013-01-19T14:26:39Z</time>
      </trkpt>
      <trkpt lat="44.33119" lon="2.51492">
        <ele>626.366</ele>
        <time>2013-01-19T14:26:44Z</time>
      </trkpt>
      <trkpt lat="44.33136" lon="2.51485">
        <ele>626.147</ele>
        <time>2013-01-19T14:26:51Z</time>
      </trkpt>
      <trkpt lat="44.33148" lon="2.5148">
        <ele>625.937</ele>
        <time>2013-01-19T14:26:55Z</time>
      </trkpt>
      <trkpt lat="44.33162" lon="2.51474">
        <ele>625.577</ele>
        <time>2013-01-19T14:27:00Z</time>
      </trkpt>
      <trkpt lat="44.33174" lon="2.51471">
        <ele>623.235</ele>
        <time>2013-01-19T14:27:04Z</time>
      </trkpt>
      <trkpt lat="44.33183" lon="2.51469">
        <ele>621.064</ele>
        <time>2013-01-19T14:27:07Z</time>
      </trkpt>
      <trkpt lat="44.33194" lon="2.51466">
        <ele>621.887</ele>
        <time>2013-01-19T14:27:11Z</time>
      </trkpt>
      <trkpt lat="44.33197" lon="2.51465">
        <ele>621.496</ele>
        <time>2013-01-19T14:27:13Z</time>
      </trkpt>
      <trkpt lat="44.33214" lon="2.51457">
        <ele>619.305</ele>
        <time>2013-01-19T14:27:18Z</time>
      </trkpt>
      <trkpt lat="44.33224" lon="2.5145">
        <ele>616.304</ele>
        <time>2013-01-19T14:27:22Z</time>
      </trkpt>
      <trkpt lat="44.33237" lon="2.51441">
        <ele>612.553</ele>
        <time>2013-01-19T14:27:27Z</time>
      </trkpt>
      <trkpt lat="44.33245" lon="2.51437">
        <ele>610.613</ele>
        <time>2013-01-19T14:27:30Z</time>
      </trkpt>
      <trkpt lat="44.33263" lon="2.51429">
        <ele>607.533</ele>
        <time>2013-01-19T14:27:36Z</time>
      </trkpt>
      <trkpt lat="44.33272" lon="2.5142">
        <ele>607.424</ele>
        <time>2013-01-19T14:27:40Z</time>
      </trkpt>
      <trkpt lat="44.33286" lon="2.51431">
        <ele>605.954</ele>
        <time>2013-01-19T14:27:43Z</time>
      </trkpt>
      <trkpt lat="44.33277" lon="2.51413">
        <ele>603.962</ele>
        <time>2013-01-19T14:27:48Z</time>
      </trkpt>
      <trkpt lat="44.33277" lon="2.51413">
        <ele>603.283</ele>
        <time>2013-01-19T14:27:49Z</time>
      </trkpt>
      <trkpt lat="44.33277" lon="2.51414">
        <ele>593.937</ele>
        <time>2013-01-19T14:28:24Z</time>
      </trkpt>
      <trkpt lat="44.33282" lon="2.51402">
        <ele>593.927</ele>
        <time>2013-01-19T14:28:30Z</time>
      </trkpt>
      <trkpt lat="44.33284" lon="2.51396">
        <ele>592.365</ele>
        <time>2013-01-19T14:28:32Z</time>
      </trkpt>
      <trkpt lat="44.33295" lon="2.51374">
        <ele>589.704</ele>
        <time>2013-01-19T14:28:38Z</time>
      </trkpt>
      <trkpt lat="44.33304" lon="2.51363">
        <ele>588.494</ele>
        <time>2013-01-19T14:28:42Z</time>
      </trkpt>
      <trkpt lat="44.33316" lon="2.51352">
        <ele>588.285</ele>
        <time>2013-01-19T14:28:47Z</time>
      </trkpt>
      <trkpt lat="44.33318" lon="2.5135">
        <ele>589.948</ele>
        <time>2013-01-19T14:28:51Z</time>
      </trkpt>
      <trkpt lat="44.33318" lon="2.5135">
        <ele>592.116</ele>
        <time>2013-01-19T14:28:54Z</time>
      </trkpt>
      <trkpt lat="44.3332" lon="2.51348">
        <ele>595.165</ele>
        <time>2013-01-19T14:29:04Z</time>
      </trkpt>
      <trkpt lat="44.33313" lon="2.51355">
        <ele>603.48</ele>
        <time>2013-01-19T14:29:40Z</time>
      </trkpt>
      <trkpt lat="44.33304" lon="2.51363">
        <ele>605.97</ele>
        <time>2013-01-19T14:29:45Z</time>
      </trkpt>
      <trkpt lat="44.33301" lon="2.51367">
        <ele>607.5</ele>
        <time>2013-01-19T14:29:47Z</time>
      </trkpt>
      <trkpt lat="44.33295" lon="2.51374">
        <ele>611.059</ele>
        <time>2013-01-19T14:29:52Z</time>
      </trkpt>
      <trkpt lat="44.33291" lon="2.51381">
        <ele>611.799</ele>
        <time>2013-01-19T14:29:55Z</time>
      </trkpt>
      <trkpt lat="44.33285" lon="2.51394">
        <ele>613.849</ele>
        <time>2013-01-19T14:30:01Z</time>
      </trkpt>
      <trkpt lat="44.33284" lon="2.51398">
        <ele>613.799</ele>
        <time>2013-01-19T14:30:03Z</time>
      </trkpt>
      <trkpt lat="44.33282" lon="2.51401">
        <ele>614.239</ele>
        <time>2013-01-19T14:30:05Z</time>
      </trkpt>
      <trkpt lat="44.33281" lon="2.51403">
        <ele>613.747</ele>
        <time>2013-01-19T14:30:11Z</time>
      </trkpt>
      <trkpt lat="44.33281" lon="2.51403">
        <ele>612.619</ele>
        <time>2013-01-19T14:30:14Z</time>
      </trkpt>
      <trkpt lat="44.33281" lon="2.51404">
        <ele>609.867</ele>
        <time>2013-01-19T14:30:24Z</time>
      </trkpt>
      <trkpt lat="44.33285" lon="2.51393">
        <ele>605.417</ele>
        <time>2013-01-19T14:30:30Z</time>
      </trkpt>
      <trkpt lat="44.33292" lon="2.51379">
        <ele>600.395</ele>
        <time>2013-01-19T14:30:36Z</time>
      </trkpt>
      <trkpt lat="44.33298" lon="2.51371">
        <ele>597.614</ele>
        <time>2013-01-19T14:30:39Z</time>
      </trkpt>
      <trkpt lat="44.33306" lon="2.51361">
        <ele>595.133</ele>
        <time>2013-01-19T14:30:43Z</time>
      </trkpt>
      <trkpt lat="44.33316" lon="2.51352">
        <ele>593.083</ele>
        <time>2013-01-19T14:30:49Z</time>
      </trkpt>
      <trkpt lat="44.33316" lon="2.51352">
        <ele>593.265</ele>
        <time>2013-01-19T14:30:50Z</time>
      </trkpt>
      <trkpt lat="44.33322" lon="2.51347">
        <ele>596.017</ele>
        <time>2013-01-19T14:30:59Z</time>
      </trkpt>
      <trkpt lat="44.33325" lon="2.51344">
        <ele>597.317</ele>
        <time>2013-01-19T14:31:04Z</time>
      </trkpt>
      <trkpt lat="44.33329" lon="2.51341">
        <ele>599.007</ele>
        <time>2013-01-19T14:31:08Z</time>
      </trkpt>
      <trkpt lat="44.33329" lon="2.51341">
        <ele>598.711</ele>
        <time>2013-01-19T14:31:10Z</time>
      </trkpt>
      <trkpt lat="44.33346" lon="2.51324">
        <ele>601.745</ele>
        <time>2013-01-19T14:32:15Z</time>
      </trkpt>
      <trkpt lat="44.33354" lon="2.51313">
        <ele>599.715</ele>
        <time>2013-01-19T14:32:22Z</time>
      </trkpt>
      <trkpt lat="44.33362" lon="2.51305">
        <ele>597.936</ele>
        <time>2013-01-19T14:32:28Z</time>
      </trkpt>
      <trkpt lat="44.33372" lon="2.51295">
        <ele>595.014</ele>
        <time>2013-01-19T14:32:34Z</time>
      </trkpt>
      <trkpt lat="44.33374" lon="2.51293">
        <ele>594.655</ele>
        <time>2013-01-19T14:32:35Z</time>
      </trkpt>
      <trkpt lat="44.33382" lon="2.51285">
        <ele>592.134</ele>
        <time>2013-01-19T14:32:41Z</time>
      </trkpt>
      <trkpt lat="44.33383" lon="2.51284">
        <ele>591.664</ele>
        <time>2013-01-19T14:32:42Z</time>
      </trkpt>
      <trkpt lat="44.33392" lon="2.51271">
        <ele>590.535</ele>
        <time>2013-01-19T14:32:47Z</time>
      </trkpt>
      <trkpt lat="44.33399" lon="2.5126">
        <ele>588.023</ele>
        <time>2013-01-19T14:32:51Z</time>
      </trkpt>
      <trkpt lat="44.33406" lon="2.51251">
        <ele>586.093</ele>
        <time>2013-01-19T14:32:54Z</time>
      </trkpt>
      <trkpt lat="44.33412" lon="2.51241">
        <ele>584.034</ele>
        <time>2013-01-19T14:32:58Z</time>
      </trkpt>
      <trkpt lat="44.33413" lon="2.51238">
        <ele>583.374</ele>
        <time>2013-01-19T14:32:59Z</time>
      </trkpt>
      <trkpt lat="44.33418" lon="2.51226">
        <ele>578.392</ele>
        <time>2013-01-19T14:33:04Z</time>
      </trkpt>
      <trkpt lat="44.33423" lon="2.51213">
        <ele>572.722</ele>
        <time>2013-01-19T14:33:09Z</time>
      </trkpt>
      <trkpt lat="44.33424" lon="2.5121">
        <ele>571.151</ele>
        <time>2013-01-19T14:33:10Z</time>
      </trkpt>
      <trkpt lat="44.3343" lon="2.51195">
        <ele>563.22</ele>
        <time>2013-01-19T14:33:15Z</time>
      </trkpt>
      <trkpt lat="44.33436" lon="2.51177">
        <ele>555.889</ele>
        <time>2013-01-19T14:33:20Z</time>
      </trkpt>
      <trkpt lat="44.33438" lon="2.51169">
        <ele>554.609</ele>
        <time>2013-01-19T14:33:22Z</time>
      </trkpt>
      <trkpt lat="44.33448" lon="2.51153">
        <ele>556.214</ele>
        <time>2013-01-19T14:33:27Z</time>
      </trkpt>
      <trkpt lat="44.33456" lon="2.51141">
        <ele>559.206</ele>
        <time>2013-01-19T14:33:30Z</time>
      </trkpt>
      <trkpt lat="44.33463" lon="2.51135">
        <ele>563.446</ele>
        <time>2013-01-19T14:33:35Z</time>
      </trkpt>
      <trkpt lat="44.33467" lon="2.51121">
        <ele>567.346</ele>
        <time>2013-01-19T14:33:39Z</time>
      </trkpt>
      <trkpt lat="44.33475" lon="2.51108">
        <ele>569.727</ele>
        <time>2013-01-19T14:33:43Z</time>
      </trkpt>
      <trkpt lat="44.33476" lon="2.51106">
        <ele>571.397</ele>
        <time>2013-01-19T14:33:46Z</time>
      </trkpt>
      <trkpt lat="44.33478" lon="2.51099">
        <ele>572.898</ele>
        <time>2013-01-19T14:33:48Z</time>
      </trkpt>
      <trkpt lat="44.33479" lon="2.51096">
        <ele>573.557</ele>
        <time>2013-01-19T14:33:50Z</time>
      </trkpt>
      <trkpt lat="44.33479" lon="2.51096">
        <ele>574.727</ele>
        <time>2013-01-19T14:33:55Z</time>
      </trkpt>
      <trkpt lat="44.33479" lon="2.51096">
        <ele>574.767</ele>
        <time>2013-01-19T14:33:56Z</time>
      </trkpt>
      <trkpt lat="44.33489" lon="2.51057">
        <ele>574.466</ele>
        <time>2013-01-19T14:34:01Z</time>
      </trkpt>
      <trkpt lat="44.33494" lon="2.51043">
        <ele>574.227</ele>
        <time>2013-01-19T14:34:07Z</time>
      </trkpt>
      <trkpt lat="44.335" lon="2.51031">
        <ele>574.276</ele>
        <time>2013-01-19T14:34:10Z</time>
      </trkpt>
      <trkpt lat="44.33502" lon="2.51028">
        <ele>574.457</ele>
        <time>2013-01-19T14:34:11Z</time>
      </trkpt>
      <trkpt lat="44.33513" lon="2.51013">
        <ele>573.936</ele>
        <time>2013-01-19T14:34:16Z</time>
      </trkpt>
      <trkpt lat="44.33514" lon="2.51012">
        <ele>573.536</ele>
        <time>2013-01-19T14:34:17Z</time>
      </trkpt>
      <trkpt lat="44.33516" lon="2.51002">
        <ele>571.726</ele>
        <time>2013-01-19T14:34:21Z</time>
      </trkpt>
      <trkpt lat="44.33522" lon="2.50985">
        <ele>568.533</ele>
        <time>2013-01-19T14:34:26Z</time>
      </trkpt>
      <trkpt lat="44.33529" lon="2.50973">
        <ele>566.195</ele>
        <time>2013-01-19T14:34:32Z</time>
      </trkpt>
      <trkpt lat="44.33531" lon="2.50971">
        <ele>564.084</ele>
        <time>2013-01-19T14:34:35Z</time>
      </trkpt>
      <trkpt lat="44.33535" lon="2.50957">
        <ele>563.997</ele>
        <time>2013-01-19T14:34:39Z</time>
      </trkpt>
      <trkpt lat="44.33537" lon="2.50949">
        <ele>564.218</ele>
        <time>2013-01-19T14:34:42Z</time>
      </trkpt>
      <trkpt lat="44.33539" lon="2.50941">
        <ele>562.927</ele>
        <time>2013-01-19T14:34:46Z</time>
      </trkpt>
      <trkpt lat="44.33541" lon="2.50934">
        <ele>561.996</ele>
        <time>2013-01-19T14:34:49Z</time>
      </trkpt>
      <trkpt lat="44.33546" lon="2.50923">
        <ele>561.146</ele>
        <time>2013-01-19T14:34:52Z</time>
      </trkpt>
      <trkpt lat="44.33556" lon="2.50913">
        <ele>560.246</ele>
        <time>2013-01-19T14:34:55Z</time>
      </trkpt>
      <trkpt lat="44.33564" lon="2.50905">
        <ele>560.898</ele>
        <time>2013-01-19T14:34:59Z</time>
      </trkpt>
      <trkpt lat="44.33565" lon="2.50902">
        <ele>561.358</ele>
        <time>2013-01-19T14:35:00Z</time>
      </trkpt>
      <trkpt lat="44.3358" lon="2.50893">
        <ele>561.817</ele>
        <time>2013-01-19T14:35:06Z</time>
      </trkpt>
      <trkpt lat="44.33582" lon="2.50889">
        <ele>561.707</ele>
        <time>2013-01-19T14:35:08Z</time>
      </trkpt>
      <trkpt lat="44.33584" lon="2.50883">
        <ele>560.987</ele>
        <time>2013-01-19T14:35:11Z</time>
      </trkpt>
      <trkpt lat="44.33584" lon="2.50883">
        <ele>559.635</ele>
        <time>2013-01-19T14:35:14Z</time>
      </trkpt>
      <trkpt lat="44.33586" lon="2.50873">
        <ele>556.165</ele>
        <time>2013-01-19T14:35:19Z</time>
      </trkpt>
      <trkpt lat="44.33594" lon="2.50867">
        <ele>554.986</ele>
        <time>2013-01-19T14:35:23Z</time>
      </trkpt>
      <trkpt lat="44.33599" lon="2.50864">
        <ele>554.165</ele>
        <time>2013-01-19T14:35:26Z</time>
      </trkpt>
      <trkpt lat="44.33607" lon="2.50858">
        <ele>550.915</ele>
        <time>2013-01-19T14:35:31Z</time>
      </trkpt>
      <trkpt lat="44.33619" lon="2.50847">
        <ele>544.794</ele>
        <time>2013-01-19T14:35:39Z</time>
      </trkpt>
      <trkpt lat="44.33627" lon="2.50841">
        <ele>541.163</ele>
        <time>2013-01-19T14:35:44Z</time>
      </trkpt>
      <trkpt lat="44.33634" lon="2.50836">
        <ele>540.195</ele>
        <time>2013-01-19T14:35:48Z</time>
      </trkpt>
      <trkpt lat="44.33636" lon="2.50835">
        <ele>540.395</ele>
        <time>2013-01-19T14:35:49Z</time>
      </trkpt>
      <trkpt lat="44.33641" lon="2.50831">
        <ele>539.797</ele>
        <time>2013-01-19T14:35:54Z</time>
      </trkpt>
      <trkpt lat="44.3365" lon="2.50825">
        <ele>540.667</ele>
        <time>2013-01-19T14:36:00Z</time>
      </trkpt>
      <trkpt lat="44.3365" lon="2.50825">
        <ele>540.557</ele>
        <time>2013-01-19T14:36:01Z</time>
      </trkpt>
      <trkpt lat="44.33653" lon="2.50823">
        <ele>539.776</ele>
        <time>2013-01-19T14:36:03Z</time>
      </trkpt>
      <trkpt lat="44.33659" lon="2.50819">
        <ele>537.266</ele>
        <time>2013-01-19T14:36:08Z</time>
      </trkpt>
      <trkpt lat="44.33668" lon="2.50813">
        <ele>534.955</ele>
        <time>2013-01-19T14:36:15Z</time>
      </trkpt>
      <trkpt lat="44.33674" lon="2.50808">
        <ele>533.286</ele>
        <time>2013-01-19T14:36:19Z</time>
      </trkpt>
      <trkpt lat="44.33685" lon="2.50801">
        <ele>531.105</ele>
        <time>2013-01-19T14:36:24Z</time>
      </trkpt>
      <trkpt lat="44.33696" lon="2.50793">
        <ele>529.436</ele>
        <time>2013-01-19T14:36:29Z</time>
      </trkpt>
      <trkpt lat="44.33698" lon="2.50792">
        <ele>528.505</ele>
        <time>2013-01-19T14:36:30Z</time>
      </trkpt>
      <trkpt lat="44.33709" lon="2.50788">
        <ele>524.744</ele>
        <time>2013-01-19T14:36:35Z</time>
      </trkpt>
      <trkpt lat="44.33722" lon="2.50784">
        <ele>521.045</ele>
        <time>2013-01-19T14:36:41Z</time>
      </trkpt>
      <trkpt lat="44.33745" lon="2.50776">
        <ele>523.185</ele>
        <time>2013-01-19T14:36:45Z</time>
      </trkpt>
      <trkpt lat="44.33745" lon="2.50776">
        <ele>524.096</ele>
        <time>2013-01-19T14:36:48Z</time>
      </trkpt>
      <trkpt lat="44.33734" lon="2.5078">
        <ele>523.146</ele>
        <time>2013-01-19T14:36:52Z</time>
      </trkpt>
      <trkpt lat="44.33745" lon="2.50776">
        <ele>522.265</ele>
        <time>2013-01-19T14:36:58Z</time>
      </trkpt>
      <trkpt lat="44.33754" lon="2.50791">
        <ele>521.575</ele>
        <time>2013-01-19T14:37:01Z</time>
      </trkpt>
      <trkpt lat="44.33755" lon="2.50791">
        <ele>519.902</ele>
        <time>2013-01-19T14:37:03Z</time>
      </trkpt>
      <trkpt lat="44.33745" lon="2.50776">
        <ele>516.555</ele>
        <time>2013-01-19T14:37:08Z</time>
      </trkpt>
      <trkpt lat="44.33764" lon="2.50798">
        <ele>512.676</ele>
        <time>2013-01-19T14:37:14Z</time>
      </trkpt>
      <trkpt lat="44.33766" lon="2.50799">
        <ele>512.035</ele>
        <time>2013-01-19T14:37:15Z</time>
      </trkpt>
      <trkpt lat="44.33775" lon="2.50805">
        <ele>509.535</ele>
        <time>2013-01-19T14:37:20Z</time>
      </trkpt>
      <trkpt lat="44.33784" lon="2.5081">
        <ele>510.467</ele>
        <time>2013-01-19T14:37:25Z</time>
      </trkpt>
      <trkpt lat="44.33795" lon="2.50817">
        <ele>514.487</ele>
        <time>2013-01-19T14:37:30Z</time>
      </trkpt>
      <trkpt lat="44.33797" lon="2.50819">
        <ele>515.347</ele>
        <time>2013-01-19T14:37:31Z</time>
      </trkpt>
      <trkpt lat="44.33802" lon="2.50822">
        <ele>514.227</ele>
        <time>2013-01-19T14:37:33Z</time>
      </trkpt>
      <trkpt lat="44.33812" lon="2.50828">
        <ele>515.807</ele>
        <time>2013-01-19T14:37:37Z</time>
      </trkpt>
      <trkpt lat="44.33824" lon="2.50836">
        <ele>515.926</ele>
        <time>2013-01-19T14:37:42Z</time>
      </trkpt>
      <trkpt lat="44.33824" lon="2.50836">
        <ele>516.807</ele>
        <time>2013-01-19T14:37:43Z</time>
      </trkpt>
      <trkpt lat="44.33837" lon="2.50845">
        <ele>515.434</ele>
        <time>2013-01-19T14:37:50Z</time>
      </trkpt>
      <trkpt lat="44.33845" lon="2.5085">
        <ele>512.274</ele>
        <time>2013-01-19T14:37:54Z</time>
      </trkpt>
      <trkpt lat="44.33856" lon="2.50857">
        <ele>507.165</ele>
        <time>2013-01-19T14:38:00Z</time>
      </trkpt>
      <trkpt lat="44.33858" lon="2.50859">
        <ele>506.794</ele>
        <time>2013-01-19T14:38:01Z</time>
      </trkpt>
      <trkpt lat="44.33863" lon="2.5087">
        <ele>505.507</ele>
        <time>2013-01-19T14:38:08Z</time>
      </trkpt>
      <trkpt lat="44.33865" lon="2.50875">
        <ele>505.867</ele>
        <time>2013-01-19T14:38:10Z</time>
      </trkpt>
      <trkpt lat="44.33868" lon="2.50881">
        <ele>506.417</ele>
        <time>2013-01-19T14:38:13Z</time>
      </trkpt>
      <trkpt lat="44.33874" lon="2.50894">
        <ele>507.918</ele>
        <time>2013-01-19T14:38:19Z</time>
      </trkpt>
      <trkpt lat="44.33879" lon="2.50904">
        <ele>508.158</ele>
        <time>2013-01-19T14:38:23Z</time>
      </trkpt>
      <trkpt lat="44.33882" lon="2.50908">
        <ele>508.548</ele>
        <time>2013-01-19T14:38:25Z</time>
      </trkpt>
      <trkpt lat="44.33889" lon="2.50915">
        <ele>506.767</ele>
        <time>2013-01-19T14:38:31Z</time>
      </trkpt>
      <trkpt lat="44.33891" lon="2.50916">
        <ele>505.976</ele>
        <time>2013-01-19T14:38:32Z</time>
      </trkpt>
      <trkpt lat="44.33906" lon="2.50921">
        <ele>501.816</ele>
        <time>2013-01-19T14:38:38Z</time>
      </trkpt>
      <trkpt lat="44.33914" lon="2.50922">
        <ele>499.506</ele>
        <time>2013-01-19T14:38:42Z</time>
      </trkpt>
      <trkpt lat="44.33939" lon="2.50922">
        <ele>501.7</ele>
        <time>2013-01-19T14:38:50Z</time>
      </trkpt>
      <trkpt lat="44.33959" lon="2.50922">
        <ele>503.139</ele>
        <time>2013-01-19T14:38:56Z</time>
      </trkpt>
      <trkpt lat="44.33979" lon="2.50922">
        <ele>504.299</ele>
        <time>2013-01-19T14:39:02Z</time>
      </trkpt>
      <trkpt lat="44.33994" lon="2.50925">
        <ele>501.797</ele>
        <time>2013-01-19T14:39:07Z</time>
      </trkpt>
      <trkpt lat="44.34009" lon="2.5093">
        <ele>499.467</ele>
        <time>2013-01-19T14:39:13Z</time>
      </trkpt>
      <trkpt lat="44.34019" lon="2.50924">
        <ele>499.988</ele>
        <time>2013-01-19T14:39:17Z</time>
      </trkpt>
      <trkpt lat="44.34024" lon="2.5092">
        <ele>500.107</ele>
        <time>2013-01-19T14:39:19Z</time>
      </trkpt>
      <trkpt lat="44.34033" lon="2.50912">
        <ele>499.968</ele>
        <time>2013-01-19T14:39:23Z</time>
      </trkpt>
      <trkpt lat="44.34039" lon="2.50907">
        <ele>496.767</ele>
        <time>2013-01-19T14:39:27Z</time>
      </trkpt>
      <trkpt lat="44.34056" lon="2.50925">
        <ele>494.678</ele>
        <time>2013-01-19T14:39:32Z</time>
      </trkpt>
      <trkpt lat="44.34063" lon="2.50931">
        <ele>494.82</ele>
        <time>2013-01-19T14:39:36Z</time>
      </trkpt>
      <trkpt lat="44.34075" lon="2.50943">
        <ele>494.87</ele>
        <time>2013-01-19T14:39:42Z</time>
      </trkpt>
      <trkpt lat="44.34084" lon="2.50967">
        <ele>500.891</ele>
        <time>2013-01-19T14:39:46Z</time>
      </trkpt>
      <trkpt lat="44.34079" lon="2.50983">
        <ele>504.352</ele>
        <time>2013-01-19T14:39:50Z</time>
      </trkpt>
      <trkpt lat="44.34072" lon="2.50998">
        <ele>503.389</ele>
        <time>2013-01-19T14:39:55Z</time>
      </trkpt>
      <trkpt lat="44.34061" lon="2.5102">
        <ele>503.92</ele>
        <time>2013-01-19T14:40:02Z</time>
      </trkpt>
      <trkpt lat="44.34052" lon="2.51037">
        <ele>502.049</ele>
        <time>2013-01-19T14:40:08Z</time>
      </trkpt>
      <trkpt lat="44.34045" lon="2.51049">
        <ele>506.851</ele>
        <time>2013-01-19T14:40:13Z</time>
      </trkpt>
      <trkpt lat="44.34038" lon="2.51058">
        <ele>508.491</ele>
        <time>2013-01-19T14:40:19Z</time>
      </trkpt>
      <trkpt lat="44.34034" lon="2.51064">
        <ele>508.831</ele>
        <time>2013-01-19T14:40:22Z</time>
      </trkpt>
      <trkpt lat="44.34027" lon="2.5107">
        <ele>513.001</ele>
        <time>2013-01-19T14:40:28Z</time>
      </trkpt>
      <trkpt lat="44.34022" lon="2.51073">
        <ele>515.451</ele>
        <time>2013-01-19T14:40:32Z</time>
      </trkpt>
      <trkpt lat="44.34015" lon="2.51078">
        <ele>518.562</ele>
        <time>2013-01-19T14:40:37Z</time>
      </trkpt>
      <trkpt lat="44.34005" lon="2.51085">
        <ele>519.93</ele>
        <time>2013-01-19T14:40:44Z</time>
      </trkpt>
      <trkpt lat="44.34" lon="2.51089">
        <ele>516.559</ele>
        <time>2013-01-19T14:40:47Z</time>
      </trkpt>
      <trkpt lat="44.33996" lon="2.51092">
        <ele>513.438</ele>
        <time>2013-01-19T14:40:50Z</time>
      </trkpt>
      <trkpt lat="44.33989" lon="2.51097">
        <ele>513.529</ele>
        <time>2013-01-19T14:40:54Z</time>
      </trkpt>
      <trkpt lat="44.33978" lon="2.51102">
        <ele>509.938</ele>
        <time>2013-01-19T14:41:01Z</time>
      </trkpt>
      <trkpt lat="44.33972" lon="2.51105">
        <ele>512.199</ele>
        <time>2013-01-19T14:41:05Z</time>
      </trkpt>
      <trkpt lat="44.33957" lon="2.51106">
        <ele>520.671</ele>
        <time>2013-01-19T14:41:15Z</time>
      </trkpt>
      <trkpt lat="44.33952" lon="2.51106">
        <ele>525.672</ele>
        <time>2013-01-19T14:41:19Z</time>
      </trkpt>
      <trkpt lat="44.33948" lon="2.51106">
        <ele>524.611</ele>
        <time>2013-01-19T14:41:27Z</time>
      </trkpt>
      <trkpt lat="44.33938" lon="2.51103">
        <ele>527.421</ele>
        <time>2013-01-19T14:41:33Z</time>
      </trkpt>
      <trkpt lat="44.33931" lon="2.511">
        <ele>528.301</ele>
        <time>2013-01-19T14:41:37Z</time>
      </trkpt>
      <trkpt lat="44.33919" lon="2.51094">
        <ele>531.441</ele>
        <time>2013-01-19T14:41:44Z</time>
      </trkpt>
      <trkpt lat="44.33909" lon="2.51089">
        <ele>528.83</ele>
        <time>2013-01-19T14:41:49Z</time>
      </trkpt>
      <trkpt lat="44.33903" lon="2.51084">
        <ele>528.481</ele>
        <time>2013-01-19T14:41:52Z</time>
      </trkpt>
      <trkpt lat="44.33893" lon="2.51077">
        <ele>528.03</ele>
        <time>2013-01-19T14:41:58Z</time>
      </trkpt>
      <trkpt lat="44.33889" lon="2.51075">
        <ele>529.85</ele>
        <time>2013-01-19T14:42:00Z</time>
      </trkpt>
      <trkpt lat="44.33877" lon="2.51066">
        <ele>533.37</ele>
        <time>2013-01-19T14:42:06Z</time>
      </trkpt>
      <trkpt lat="44.33866" lon="2.51055">
        <ele>531.02</ele>
        <time>2013-01-19T14:42:12Z</time>
      </trkpt>
      <trkpt lat="44.33857" lon="2.51047">
        <ele>527.7</ele>
        <time>2013-01-19T14:42:17Z</time>
      </trkpt>
      <trkpt lat="44.33855" lon="2.51045">
        <ele>527.86</ele>
        <time>2013-01-19T14:42:18Z</time>
      </trkpt>
      <trkpt lat="44.33843" lon="2.51039">
        <ele>526.621</ele>
        <time>2013-01-19T14:42:24Z</time>
      </trkpt>
      <trkpt lat="44.33828" lon="2.51043">
        <ele>525.23</ele>
        <time>2013-01-19T14:42:30Z</time>
      </trkpt>
      <trkpt lat="44.3382" lon="2.51052">
        <ele>524.87</ele>
        <time>2013-01-19T14:42:35Z</time>
      </trkpt>
      <trkpt lat="44.33814" lon="2.51065">
        <ele>523.17</ele>
        <time>2013-01-19T14:42:42Z</time>
      </trkpt>
      <trkpt lat="44.33807" lon="2.5108">
        <ele>521.258</ele>
        <time>2013-01-19T14:42:51Z</time>
      </trkpt>
      <trkpt lat="44.33801" lon="2.5109">
        <ele>520.999</ele>
        <time>2013-01-19T14:42:58Z</time>
      </trkpt>
      <trkpt lat="44.33795" lon="2.51106">
        <ele>520.718</ele>
        <time>2013-01-19T14:43:07Z</time>
      </trkpt>
      <trkpt lat="44.33791" lon="2.51119">
        <ele>522.34</ele>
        <time>2013-01-19T14:43:14Z</time>
      </trkpt>
      <trkpt lat="44.33789" lon="2.51125">
        <ele>522.75</ele>
        <time>2013-01-19T14:43:17Z</time>
      </trkpt>
      <trkpt lat="44.33798" lon="2.51131">
        <ele>523.78</ele>
        <time>2013-01-19T14:43:23Z</time>
      </trkpt>
      <trkpt lat="44.33803" lon="2.51132">
        <ele>523.98</ele>
        <time>2013-01-19T14:43:26Z</time>
      </trkpt>
      <trkpt lat="44.33814" lon="2.5114">
        <ele>525.45</ele>
        <time>2013-01-19T14:43:34Z</time>
      </trkpt>
      <trkpt lat="44.33822" lon="2.51148">
        <ele>526.61</ele>
        <time>2013-01-19T14:43:41Z</time>
      </trkpt>
      <trkpt lat="44.33825" lon="2.51156">
        <ele>528.231</ele>
        <time>2013-01-19T14:43:46Z</time>
      </trkpt>
      <trkpt lat="44.33829" lon="2.51169">
        <ele>531.371</ele>
        <time>2013-01-19T14:43:53Z</time>
      </trkpt>
      <trkpt lat="44.3383" lon="2.51176">
        <ele>532.191</ele>
        <time>2013-01-19T14:43:57Z</time>
      </trkpt>
      <trkpt lat="44.33833" lon="2.51185">
        <ele>533.241</ele>
        <time>2013-01-19T14:44:02Z</time>
      </trkpt>
      <trkpt lat="44.33835" lon="2.51195">
        <ele>533.65</ele>
        <time>2013-01-19T14:44:08Z</time>
      </trkpt>
      <trkpt lat="44.33837" lon="2.512">
        <ele>533.53</ele>
        <time>2013-01-19T14:44:11Z</time>
      </trkpt>
      <trkpt lat="44.33839" lon="2.51206">
        <ele>533.699</ele>
        <time>2013-01-19T14:44:16Z</time>
      </trkpt>
      <trkpt lat="44.33842" lon="2.51214">
        <ele>535.841</ele>
        <time>2013-01-19T14:44:22Z</time>
      </trkpt>
      <trkpt lat="44.33844" lon="2.5122">
        <ele>538.251</ele>
        <time>2013-01-19T14:44:27Z</time>
      </trkpt>
      <trkpt lat="44.33845" lon="2.51223">
        <ele>538.25</ele>
        <time>2013-01-19T14:44:29Z</time>
      </trkpt>
      <trkpt lat="44.33846" lon="2.51226">
        <ele>538.34</ele>
        <time>2013-01-19T14:44:32Z</time>
      </trkpt>
      <trkpt lat="44.33847" lon="2.51229">
        <ele>538.309</ele>
        <time>2013-01-19T14:44:38Z</time>
      </trkpt>
      <trkpt lat="44.3385" lon="2.51237">
        <ele>538.97</ele>
        <time>2013-01-19T14:44:43Z</time>
      </trkpt>
      <trkpt lat="44.33852" lon="2.51241">
        <ele>539.36</ele>
        <time>2013-01-19T14:44:45Z</time>
      </trkpt>
      <trkpt lat="44.33854" lon="2.51246">
        <ele>538.979</ele>
        <time>2013-01-19T14:44:49Z</time>
      </trkpt>
      <trkpt lat="44.33857" lon="2.51253">
        <ele>538.629</ele>
        <time>2013-01-19T14:44:55Z</time>
      </trkpt>
      <trkpt lat="44.33859" lon="2.51258">
        <ele>537.889</ele>
        <time>2013-01-19T14:44:57Z</time>
      </trkpt>
      <trkpt lat="44.33859" lon="2.51262">
        <ele>535.878</ele>
        <time>2013-01-19T14:45:04Z</time>
      </trkpt>
      <trkpt lat="44.33857" lon="2.51273">
        <ele>537.699</ele>
        <time>2013-01-19T14:45:09Z</time>
      </trkpt>
      <trkpt lat="44.33855" lon="2.51276">
        <ele>538.779</ele>
        <time>2013-01-19T14:45:11Z</time>
      </trkpt>
      <trkpt lat="44.33854" lon="2.51279">
        <ele>540.17</ele>
        <time>2013-01-19T14:45:13Z</time>
      </trkpt>
      <trkpt lat="44.33851" lon="2.51284">
        <ele>542.291</ele>
        <time>2013-01-19T14:45:18Z</time>
      </trkpt>
      <trkpt lat="44.3385" lon="2.51288">
        <ele>543.191</ele>
        <time>2013-01-19T14:45:22Z</time>
      </trkpt>
      <trkpt lat="44.33845" lon="2.51297">
        <ele>544.4</ele>
        <time>2013-01-19T14:45:27Z</time>
      </trkpt>
      <trkpt lat="44.33845" lon="2.51299">
        <ele>544.56</ele>
        <time>2013-01-19T14:45:28Z</time>
      </trkpt>
      <trkpt lat="44.33844" lon="2.51302">
        <ele>545.8</ele>
        <time>2013-01-19T14:45:30Z</time>
      </trkpt>
      <trkpt lat="44.33839" lon="2.51312">
        <ele>547.26</ele>
        <time>2013-01-19T14:45:36Z</time>
      </trkpt>
      <trkpt lat="44.33837" lon="2.51321">
        <ele>550.321</ele>
        <time>2013-01-19T14:45:41Z</time>
      </trkpt>
      <trkpt lat="44.33833" lon="2.51334">
        <ele>551.77</ele>
        <time>2013-01-19T14:45:48Z</time>
      </trkpt>
      <trkpt lat="44.3383" lon="2.51343">
        <ele>552.46</ele>
        <time>2013-01-19T14:45:53Z</time>
      </trkpt>
      <trkpt lat="44.33829" lon="2.51348">
        <ele>552.629</ele>
        <time>2013-01-19T14:45:56Z</time>
      </trkpt>
      <trkpt lat="44.33828" lon="2.51352">
        <ele>553.039</ele>
        <time>2013-01-19T14:45:58Z</time>
      </trkpt>
      <trkpt lat="44.33827" lon="2.51355">
        <ele>554.2</ele>
        <time>2013-01-19T14:46:06Z</time>
      </trkpt>
      <trkpt lat="44.33827" lon="2.51355">
        <ele>554.41</ele>
        <time>2013-01-19T14:46:07Z</time>
      </trkpt>
      <trkpt lat="44.3382" lon="2.51385">
        <ele>556.131</ele>
        <time>2013-01-19T14:46:14Z</time>
      </trkpt>
      <trkpt lat="44.33816" lon="2.51404">
        <ele>557.64</ele>
        <time>2013-01-19T14:46:21Z</time>
      </trkpt>
      <trkpt lat="44.33813" lon="2.51421">
        <ele>561.422</ele>
        <time>2013-01-19T14:46:27Z</time>
      </trkpt>
      <trkpt lat="44.33812" lon="2.51426">
        <ele>561.941</ele>
        <time>2013-01-19T14:46:29Z</time>
      </trkpt>
      <trkpt lat="44.3381" lon="2.51443">
        <ele>564.022</ele>
        <time>2013-01-19T14:46:35Z</time>
      </trkpt>
      <trkpt lat="44.3381" lon="2.51447">
        <ele>564.051</ele>
        <time>2013-01-19T14:46:36Z</time>
      </trkpt>
      <trkpt lat="44.33812" lon="2.51458">
        <ele>563.78</ele>
        <time>2013-01-19T14:46:43Z</time>
      </trkpt>
      <trkpt lat="44.33814" lon="2.51469">
        <ele>563.64</ele>
        <time>2013-01-19T14:46:49Z</time>
      </trkpt>
      <trkpt lat="44.33817" lon="2.5148">
        <ele>563.95</ele>
        <time>2013-01-19T14:46:55Z</time>
      </trkpt>
      <trkpt lat="44.33821" lon="2.5149">
        <ele>563.53</ele>
        <time>2013-01-19T14:47:02Z</time>
      </trkpt>
      <trkpt lat="44.33822" lon="2.51492">
        <ele>563.45</ele>
        <time>2013-01-19T14:47:03Z</time>
      </trkpt>
      <trkpt lat="44.33826" lon="2.51501">
        <ele>563.581</ele>
        <time>2013-01-19T14:47:10Z</time>
      </trkpt>
      <trkpt lat="44.33828" lon="2.51507">
        <ele>564.271</ele>
        <time>2013-01-19T14:47:14Z</time>
      </trkpt>
      <trkpt lat="44.33835" lon="2.5152">
        <ele>564.531</ele>
        <time>2013-01-19T14:47:22Z</time>
      </trkpt>
      <trkpt lat="44.3384" lon="2.51525">
        <ele>566.772</ele>
        <time>2013-01-19T14:47:27Z</time>
      </trkpt>
      <trkpt lat="44.33844" lon="2.51507">
        <ele>567.361</ele>
        <time>2013-01-19T14:47:29Z</time>
      </trkpt>
      <trkpt lat="44.33844" lon="2.51495">
        <ele>568.853</ele>
        <time>2013-01-19T14:47:35Z</time>
      </trkpt>
      <trkpt lat="44.33844" lon="2.51492">
        <ele>569.312</ele>
        <time>2013-01-19T14:47:36Z</time>
      </trkpt>
      <trkpt lat="44.33848" lon="2.51478">
        <ele>572.292</ele>
        <time>2013-01-19T14:47:43Z</time>
      </trkpt>
      <trkpt lat="44.33858" lon="2.51467">
        <ele>574.191</ele>
        <time>2013-01-19T14:47:51Z</time>
      </trkpt>
      <trkpt lat="44.33871" lon="2.51459">
        <ele>575.09</ele>
        <time>2013-01-19T14:47:59Z</time>
      </trkpt>
      <trkpt lat="44.3388" lon="2.51455">
        <ele>576.081</ele>
        <time>2013-01-19T14:48:04Z</time>
      </trkpt>
      <trkpt lat="44.3389" lon="2.51451">
        <ele>578.362</ele>
        <time>2013-01-19T14:48:09Z</time>
      </trkpt>
      <trkpt lat="44.33901" lon="2.51448">
        <ele>580.131</ele>
        <time>2013-01-19T14:48:15Z</time>
      </trkpt>
      <trkpt lat="44.33907" lon="2.51449">
        <ele>579.712</ele>
        <time>2013-01-19T14:48:20Z</time>
      </trkpt>
      <trkpt lat="44.33908" lon="2.5145">
        <ele>576.04</ele>
        <time>2013-01-19T14:48:37Z</time>
      </trkpt>
      <trkpt lat="44.33908" lon="2.5145">
        <ele>576.22</ele>
        <time>2013-01-19T14:48:38Z</time>
      </trkpt>
      <trkpt lat="44.33913" lon="2.51458">
        <ele>575.54</ele>
        <time>2013-01-19T14:48:44Z</time>
      </trkpt>
      <trkpt lat="44.33914" lon="2.51465">
        <ele>575.77</ele>
        <time>2013-01-19T14:48:48Z</time>
      </trkpt>
      <trkpt lat="44.33916" lon="2.51475">
        <ele>576.921</ele>
        <time>2013-01-19T14:48:53Z</time>
      </trkpt>
      <trkpt lat="44.33917" lon="2.5149">
        <ele>579.502</ele>
        <time>2013-01-19T14:49:01Z</time>
      </trkpt>
      <trkpt lat="44.33917" lon="2.51503">
        <ele>579.562</ele>
        <time>2013-01-19T14:49:07Z</time>
      </trkpt>
      <trkpt lat="44.33917" lon="2.51518">
        <ele>581.531</ele>
        <time>2013-01-19T14:49:14Z</time>
      </trkpt>
      <trkpt lat="44.33919" lon="2.51531">
        <ele>582.551</ele>
        <time>2013-01-19T14:49:21Z</time>
      </trkpt>
      <trkpt lat="44.3392" lon="2.51542">
        <ele>582.601</ele>
        <time>2013-01-19T14:49:26Z</time>
      </trkpt>
      <trkpt lat="44.33925" lon="2.51555">
        <ele>584.431</ele>
        <time>2013-01-19T14:49:31Z</time>
      </trkpt>
      <trkpt lat="44.33933" lon="2.51567">
        <ele>585.942</ele>
        <time>2013-01-19T14:49:36Z</time>
      </trkpt>
      <trkpt lat="44.33938" lon="2.51577">
        <ele>586.01</ele>
        <time>2013-01-19T14:49:40Z</time>
      </trkpt>
      <trkpt lat="44.33942" lon="2.51588">
        <ele>586.92</ele>
        <time>2013-01-19T14:49:45Z</time>
      </trkpt>
      <trkpt lat="44.33944" lon="2.51603">
        <ele>587.871</ele>
        <time>2013-01-19T14:49:51Z</time>
      </trkpt>
      <trkpt lat="44.33947" lon="2.51617">
        <ele>590.822</ele>
        <time>2013-01-19T14:49:57Z</time>
      </trkpt>
      <trkpt lat="44.3395" lon="2.51626">
        <ele>593.882</ele>
        <time>2013-01-19T14:50:02Z</time>
      </trkpt>
      <trkpt lat="44.33957" lon="2.51636">
        <ele>596.382</ele>
        <time>2013-01-19T14:50:08Z</time>
      </trkpt>
      <trkpt lat="44.33965" lon="2.51643">
        <ele>598.472</ele>
        <time>2013-01-19T14:50:14Z</time>
      </trkpt>
      <trkpt lat="44.33974" lon="2.51649">
        <ele>600.813</ele>
        <time>2013-01-19T14:50:20Z</time>
      </trkpt>
      <trkpt lat="44.33978" lon="2.51651">
        <ele>601.812</ele>
        <time>2013-01-19T14:50:23Z</time>
      </trkpt>
      <trkpt lat="44.33991" lon="2.51659">
        <ele>603.682</ele>
        <time>2013-01-19T14:50:30Z</time>
      </trkpt>
      <trkpt lat="44.33997" lon="2.51664">
        <ele>604.902</ele>
        <time>2013-01-19T14:50:34Z</time>
      </trkpt>
      <trkpt lat="44.34006" lon="2.51672">
        <ele>605.501</ele>
        <time>2013-01-19T14:50:39Z</time>
      </trkpt>
      <trkpt lat="44.34016" lon="2.51681">
        <ele>606.612</ele>
        <time>2013-01-19T14:50:45Z</time>
      </trkpt>
      <trkpt lat="44.34023" lon="2.51687">
        <ele>607.011</ele>
        <time>2013-01-19T14:50:49Z</time>
      </trkpt>
      <trkpt lat="44.34039" lon="2.51694">
        <ele>607.13</ele>
        <time>2013-01-19T14:50:56Z</time>
      </trkpt>
      <trkpt lat="44.3405" lon="2.51698">
        <ele>606.98</ele>
        <time>2013-01-19T14:51:01Z</time>
      </trkpt>
      <trkpt lat="44.34063" lon="2.51702">
        <ele>606.891</ele>
        <time>2013-01-19T14:51:07Z</time>
      </trkpt>
      <trkpt lat="44.34077" lon="2.51707">
        <ele>606.32</ele>
        <time>2013-01-19T14:51:13Z</time>
      </trkpt>
      <trkpt lat="44.34089" lon="2.51711">
        <ele>605.76</ele>
        <time>2013-01-19T14:51:18Z</time>
      </trkpt>
      <trkpt lat="44.34093" lon="2.51715">
        <ele>605.559</ele>
        <time>2013-01-19T14:51:20Z</time>
      </trkpt>
      <trkpt lat="44.34104" lon="2.51731">
        <ele>606.711</ele>
        <time>2013-01-19T14:51:26Z</time>
      </trkpt>
      <trkpt lat="44.34106" lon="2.51735">
        <ele>606.872</ele>
        <time>2013-01-19T14:51:27Z</time>
      </trkpt>
      <trkpt lat="44.34115" lon="2.51753">
        <ele>608.172</ele>
        <time>2013-01-19T14:51:33Z</time>
      </trkpt>
      <trkpt lat="44.34119" lon="2.51759">
        <ele>608.351</ele>
        <time>2013-01-19T14:51:35Z</time>
      </trkpt>
      <trkpt lat="44.34131" lon="2.51772">
        <ele>609.282</ele>
        <time>2013-01-19T14:51:41Z</time>
      </trkpt>
      <trkpt lat="44.34144" lon="2.51787">
        <ele>610.682</ele>
        <time>2013-01-19T14:51:47Z</time>
      </trkpt>
      <trkpt lat="44.34153" lon="2.51796">
        <ele>610.831</ele>
        <time>2013-01-19T14:51:51Z</time>
      </trkpt>
      <trkpt lat="44.34161" lon="2.51805">
        <ele>610.961</ele>
        <time>2013-01-19T14:51:55Z</time>
      </trkpt>
      <trkpt lat="44.34175" lon="2.51817">
        <ele>610.411</ele>
        <time>2013-01-19T14:52:01Z</time>
      </trkpt>
      <trkpt lat="44.34187" lon="2.51827">
        <ele>609.871</ele>
        <time>2013-01-19T14:52:06Z</time>
      </trkpt>
      <trkpt lat="44.34196" lon="2.51835">
        <ele>609.091</ele>
        <time>2013-01-19T14:52:10Z</time>
      </trkpt>
      <trkpt lat="44.34209" lon="2.51847">
        <ele>608.942</ele>
        <time>2013-01-19T14:52:16Z</time>
      </trkpt>
      <trkpt lat="44.34221" lon="2.51857">
        <ele>608.822</ele>
        <time>2013-01-19T14:52:21Z</time>
      </trkpt>
      <trkpt lat="44.34234" lon="2.51868">
        <ele>607.651</ele>
        <time>2013-01-19T14:52:27Z</time>
      </trkpt>
      <trkpt lat="44.34236" lon="2.51869">
        <ele>607.14</ele>
        <time>2013-01-19T14:52:28Z</time>
      </trkpt>
      <trkpt lat="44.3425" lon="2.51877">
        <ele>607.101</ele>
        <time>2013-01-19T14:52:34Z</time>
      </trkpt>
      <trkpt lat="44.34264" lon="2.5188">
        <ele>606.781</ele>
        <time>2013-01-19T14:52:39Z</time>
      </trkpt>
      <trkpt lat="44.34278" lon="2.5188">
        <ele>605.061</ele>
        <time>2013-01-19T14:52:44Z</time>
      </trkpt>
      <trkpt lat="44.34294" lon="2.51877">
        <ele>606.171</ele>
        <time>2013-01-19T14:52:49Z</time>
      </trkpt>
      <trkpt lat="44.34306" lon="2.51875">
        <ele>607.212</ele>
        <time>2013-01-19T14:52:53Z</time>
      </trkpt>
      <trkpt lat="44.34317" lon="2.51873">
        <ele>608.702</ele>
        <time>2013-01-19T14:52:57Z</time>
      </trkpt>
      <trkpt lat="44.34331" lon="2.5187">
        <ele>607.801</ele>
        <time>2013-01-19T14:53:02Z</time>
      </trkpt>
      <trkpt lat="44.34334" lon="2.5187">
        <ele>608.021</ele>
        <time>2013-01-19T14:53:03Z</time>
      </trkpt>
      <trkpt lat="44.3435" lon="2.51868">
        <ele>606.681</ele>
        <time>2013-01-19T14:53:09Z</time>
      </trkpt>
    </trkseg>
  </trk>
</gpx>